Observation data for Lake Alan Henry on 05/23/2020      Previous  Date  Next       Current Mesonet Observations  Soil Data  Daily Summary Page  Observations in Plain Language
KAHS 230500Z 18005KT 25/16 A2974 RMK A01 T02530163  RH  057%=      5-min Rain = 0
KAHS 230501Z 17005KT 25/16 A2974 RMK A01 T02510163  RH  058%=      5-min Rain = 0
KAHS 230502Z 17004KT 25/16 A2974 RMK A01 T02490163  RH  059%=      5-min Rain = 0
KAHS 230503Z 16004KT 25/16 A2974 RMK A01 T02470163  RH  059%=      5-min Rain = 0
KAHS 230504Z 17004KT 25/16 A2974 RMK A01 T02460163  RH  060%=      5-min Rain = 0
KAHS 230505Z 16005KT 25/16 A2974 RMK A01 T02450164  RH  060%=      5-min Rain = 0
KAHS 230506Z 16005KT 25/16 A2974 RMK A01 T02450164  RH  061%=      5-min Rain = 0
KAHS 230507Z 16005KT 25/17 A2974 RMK A01 T02450165  RH  061%=      5-min Rain = 0
KAHS 230508Z 16006KT 24/17 A2974 RMK A01 T02440165  RH  061%=      5-min Rain = 0
KAHS 230509Z 15006KT 24/17 A2974 RMK A01 T02440166  RH  062%=      5-min Rain = 0
KAHS 230510Z 15007KT 24/17 A2974 RMK A01 T02430166  RH  062%=      5-min Rain = 0
KAHS 230511Z 15006KT 24/17 A2974 RMK A01 T02430165  RH  062%=      5-min Rain = 0
KAHS 230512Z 15007KT 24/17 A2974 RMK A01 T02420165  RH  062%=      5-min Rain = 0
KAHS 230513Z 16007KT 24/17 A2974 RMK A01 T02420166  RH  063%=      5-min Rain = 0
KAHS 230514Z 15007KT 24/17 A2974 RMK A01 T02410166  RH  063%=      5-min Rain = 0
KAHS 230515Z 15007KT 24/17 A2974 RMK A01 T02410167  RH  063%=      5-min Rain = 0
KAHS 230516Z 16008KT 24/17 A2975 RMK A01 T02420168  RH  063%=      5-min Rain = 0
KAHS 230517Z 16008KT 24/17 A2975 RMK A01 T02420168  RH  063%=      5-min Rain = 0
KAHS 230518Z 16008KT 24/17 A2975 RMK A01 T02430168  RH  063%=      5-min Rain = 0
KAHS 230519Z 15007KT 24/17 A2975 RMK A01 T02440168  RH  063%=      5-min Rain = 0
KAHS 230520Z 15007KT 25/17 A2975 RMK A01 T02450168  RH  062%=      5-min Rain = 0
KAHS 230521Z 15007KT 25/17 A2975 RMK A01 T02450168  RH  062%=      5-min Rain = 0
KAHS 230522Z 15007KT 25/17 A2975 RMK A01 T02450169  RH  063%=      5-min Rain = 0
KAHS 230523Z 15007KT 25/17 A2975 RMK A01 T02460170  RH  063%=      5-min Rain = 0
KAHS 230524Z 16007KT 25/17 A2975 RMK A01 T02470171  RH  063%=      5-min Rain = 0
KAHS 230525Z 16007KT 25/17 A2975 RMK A01 T02480171  RH  062%=      5-min Rain = 0
KAHS 230526Z 16007KT 25/17 A2975 RMK A01 T02480171  RH  063%=      5-min Rain = 0
KAHS 230527Z 16008KT 25/17 A2975 RMK A01 T02480172  RH  062%=      5-min Rain = 0
KAHS 230528Z 16007KT 25/17 A2975 RMK A01 T02490172  RH  062%=      5-min Rain = 0
KAHS 230529Z 16007KT 25/17 A2975 RMK A01 T02500172  RH  062%=      5-min Rain = 0
KAHS 230530Z 16007KT 25/17 A2975 RMK A01 T02510172  RH  062%=      5-min Rain = 0
KAHS 230531Z 16008KT 25/17 A2975 RMK A01 T02510172  RH  061%=      5-min Rain = 0
KAHS 230532Z 17008KT 25/17 A2975 RMK A01 T02520171  RH  061%=      5-min Rain = 0
KAHS 230533Z 17009KT 25/17 A2975 RMK A01 T02540171  RH  060%=      5-min Rain = 0
KAHS 230534Z 16008KT 25/17 A2975 RMK A01 T02540170  RH  060%=      5-min Rain = 0
KAHS 230535Z 16007KT 26/17 A2976 RMK A01 T02550170  RH  059%=      5-min Rain = 0
KAHS 230536Z 17007KT 26/17 A2976 RMK A01 T02550170  RH  059%=      5-min Rain = 0
KAHS 230537Z 17006KT 26/17 A2976 RMK A01 T02550170  RH  060%=      5-min Rain = 0
KAHS 230538Z 17006KT 25/17 A2976 RMK A01 T02540170  RH  060%=      5-min Rain = 0
KAHS 230539Z 17006KT 25/17 A2976 RMK A01 T02540171  RH  060%=      5-min Rain = 0
KAHS 230540Z 18006KT 25/17 A2976 RMK A01 T02540171  RH  060%=      5-min Rain = 0
KAHS 230541Z 18006KT 25/17 A2976 RMK A01 T02530171  RH  060%=      5-min Rain = 0
KAHS 230542Z 19005KT 25/17 A2976 RMK A01 T02520171  RH  061%=      5-min Rain = 0
KAHS 230543Z 19006KT 25/17 A2976 RMK A01 T02510172  RH  061%=      5-min Rain = 0
KAHS 230544Z 19006KT 25/17 A2976 RMK A01 T02510172  RH  062%=      5-min Rain = 0
KAHS 230545Z 19006KT 25/17 A2976 RMK A01 T02510173  RH  062%=      5-min Rain = 0
KAHS 230546Z 20006KT 25/17 A2976 RMK A01 T02510172  RH  062%=      5-min Rain = 0
KAHS 230547Z 19007KT 25/17 A2976 RMK A01 T02510173  RH  062%=      5-min Rain = 0
KAHS 230548Z 20008KT 25/17 A2976 RMK A01 T02520173  RH  061%=      5-min Rain = 0
KAHS 230549Z 19010KT 25/17 A2976 RMK A01 T02530173  RH  061%=      5-min Rain = 0
KAHS 230550Z 19010KT 26/17 A2976 RMK A01 T02550173  RH  061%=      5-min Rain = 0
KAHS 230551Z 20008KT 26/17 A2976 RMK A01 T02560173  RH  060%=      5-min Rain = 0
KAHS 230552Z 19008G13KT 26/17 A2976 RMK A01 T02560173  RH  060%=      5-min Rain = 0
KAHS 230553Z 20008KT 26/17 A2976 RMK A01 T02560173  RH  060%=      5-min Rain = 0
KAHS 230554Z 20009KT 26/17 A2976 RMK A01 T02560173  RH  060%=      5-min Rain = 0
KAHS 230555Z 20009KT 26/17 A2976 RMK A01 T02570173  RH  060%=      5-min Rain = 0
KAHS 230556Z 20009G14KT 26/17 A2976 RMK A01 T02580173  RH  060%=      5-min Rain = 0
KAHS 230557Z 19010G15KT 26/17 A2976 RMK A01 T02590173  RH  059%=      5-min Rain = 0
KAHS 230558Z 20011KT 26/17 A2976 RMK A01 T02610173  RH  058%=      5-min Rain = 0
KAHS 230559Z 19010KT 26/17 A2976 RMK A01 T02620173  RH  058%=      5-min Rain = 0
KAHS 230600Z 20008KT 26/17 A2976 RMK A01 T02620172  RH  058%=      5-min Rain = 0
KAHS 230601Z 20010KT 26/17 A2976 RMK A01 T02620172  RH  058%=      5-min Rain = 0
KAHS 230602Z 20011KT 26/17 A2976 RMK A01 T02630171  RH  057%=      5-min Rain = 0
KAHS 230603Z 20010KT 26/17 A2976 RMK A01 T02640171  RH  057%=      5-min Rain = 0
KAHS 230604Z 20010KT 26/17 A2976 RMK A01 T02640171  RH  056%=      5-min Rain = 0
KAHS 230605Z 20010KT 26/17 A2976 RMK A01 T02640170  RH  056%=      5-min Rain = 0
KAHS 230606Z 20010KT 27/17 A2976 RMK A01 T02650170  RH  056%=      5-min Rain = 0
KAHS 230607Z 20010KT 27/17 A2976 RMK A01 T02650169  RH  056%=      5-min Rain = 0
KAHS 230608Z 20011KT 27/17 A2976 RMK A01 T02650170  RH  056%=      5-min Rain = 0
KAHS 230609Z 20010G16KT 27/17 A2976 RMK A01 T02660170  RH  055%=      5-min Rain = 0
KAHS 230610Z 20011G16KT 27/17 A2976 RMK A01 T02650170  RH  056%=      5-min Rain = 0
KAHS 230611Z 20011KT 27/17 A2976 RMK A01 T02650169  RH  056%=      5-min Rain = 0
KAHS 230612Z 20012KT 27/17 A2976 RMK A01 T02650169  RH  056%=      5-min Rain = 0
KAHS 230613Z 20011KT 27/17 A2976 RMK A01 T02650169  RH  055%=      5-min Rain = 0
KAHS 230614Z 21008KT 27/17 A2976 RMK A01 T02650169  RH  056%=      5-min Rain = 0
KAHS 230615Z 20008G14KT 26/17 A2976 RMK A01 T02640169  RH  056%=      5-min Rain = 0
KAHS 230616Z 20008KT 26/17 A2976 RMK A01 T02640169  RH  056%=      5-min Rain = 0
KAHS 230617Z 21008KT 26/17 A2976 RMK A01 T02630169  RH  056%=      5-min Rain = 0
KAHS 230618Z 20008KT 26/17 A2976 RMK A01 T02630168  RH  056%=      5-min Rain = 0
KAHS 230619Z 20008KT 26/17 A2976 RMK A01 T02620168  RH  056%=      5-min Rain = 0
KAHS 230620Z 21007KT 26/17 A2976 RMK A01 T02630168  RH  056%=      5-min Rain = 0
KAHS 230621Z 20008KT 26/17 A2976 RMK A01 T02620168  RH  056%=      5-min Rain = 0
KAHS 230622Z 19008KT 26/17 A2976 RMK A01 T02620167  RH  056%=      5-min Rain = 0
KAHS 230623Z 20007KT 26/17 A2977 RMK A01 T02620167  RH  056%=      5-min Rain = 0
KAHS 230624Z 19006G11KT 26/17 A2977 RMK A01 T02610167  RH  056%=      5-min Rain = 0
KAHS 230625Z 19008KT 26/17 A2977 RMK A01 T02610167  RH  056%=      5-min Rain = 0
KAHS 230626Z 19006KT 26/17 A2977 RMK A01 T02610167  RH  056%=      5-min Rain = 0
KAHS 230627Z 19006KT 26/17 A2977 RMK A01 T02600168  RH  057%=      5-min Rain = 0
KAHS 230628Z 18007KT 26/17 A2977 RMK A01 T02590168  RH  057%=      5-min Rain = 0
KAHS 230629Z 18007KT 26/17 A2977 RMK A01 T02590169  RH  058%=      5-min Rain = 0
KAHS 230630Z 18006KT 26/17 A2977 RMK A01 T02580170  RH  058%=      5-min Rain = 0
KAHS 230631Z 19007KT 26/17 A2977 RMK A01 T02570171  RH  059%=      5-min Rain = 0
KAHS 230632Z 19006KT 26/17 A2977 RMK A01 T02570171  RH  059%=      5-min Rain = 0
KAHS 230633Z 19007KT 26/17 A2977 RMK A01 T02560171  RH  059%=      5-min Rain = 0
KAHS 230634Z 19007KT 26/17 A2977 RMK A01 T02570171  RH  059%=      5-min Rain = 0
KAHS 230635Z 19007KT 26/17 A2977 RMK A01 T02570171  RH  059%=      5-min Rain = 0
KAHS 230636Z 20006KT 26/17 A2977 RMK A01 T02570171  RH  059%=      5-min Rain = 0
KAHS 230637Z 19007KT 26/17 A2977 RMK A01 T02570170  RH  059%=      5-min Rain = 0
KAHS 230638Z 20009KT 26/17 A2977 RMK A01 T02570170  RH  058%=      5-min Rain = 0
KAHS 230639Z 19007KT 26/17 A2977 RMK A01 T02580170  RH  058%=      5-min Rain = 0
KAHS 230640Z 20006KT 26/17 A2977 RMK A01 T02590170  RH  058%=      5-min Rain = 0
KAHS 230641Z 20008KT 26/17 A2977 RMK A01 T02580170  RH  058%=      5-min Rain = 0
KAHS 230642Z 20008KT 26/17 A2977 RMK A01 T02590170  RH  058%=      5-min Rain = 0
KAHS 230643Z 20008KT 26/17 A2977 RMK A01 T02590170  RH  058%=      5-min Rain = 0
KAHS 230644Z 19008KT 26/17 A2977 RMK A01 T02590170  RH  058%=      5-min Rain = 0
KAHS 230645Z 20009KT 26/17 A2977 RMK A01 T02590169  RH  058%=      5-min Rain = 0
KAHS 230646Z 20009KT 26/17 A2977 RMK A01 T02600170  RH  057%=      5-min Rain = 0
KAHS 230647Z 20009KT 26/17 A2977 RMK A01 T02600169  RH  057%=      5-min Rain = 0
KAHS 230648Z 20009KT 26/17 A2977 RMK A01 T02610170  RH  057%=      5-min Rain = 0
KAHS 230649Z 20010KT 26/17 A2977 RMK A01 T02610170  RH  057%=      5-min Rain = 0
KAHS 230650Z 20012KT 26/17 A2977 RMK A01 T02610170  RH  057%=      5-min Rain = 0
KAHS 230651Z 20012KT 26/17 A2977 RMK A01 T02620171  RH  057%=      5-min Rain = 0
KAHS 230652Z 20012KT 26/17 A2977 RMK A01 T02630171  RH  057%=      5-min Rain = 0
KAHS 230653Z 21010G15KT 26/17 A2977 RMK A01 T02630171  RH  057%=      5-min Rain = 0
KAHS 230654Z 20010G17KT 26/17 A2977 RMK A01 T02630171  RH  057%=      5-min Rain = 0
KAHS 230655Z 21015KT 26/17 A2977 RMK A01 T02630172  RH  057%=      5-min Rain = 0
KAHS 230656Z 21011KT 26/17 A2977 RMK A01 T02640172  RH  057%=      5-min Rain = 0
KAHS 230657Z 21010G16KT 26/17 A2977 RMK A01 T02640173  RH  057%=      5-min Rain = 0
KAHS 230658Z 21009KT 26/17 A2977 RMK A01 T02640173  RH  057%=      5-min Rain = 0
KAHS 230659Z 20011KT 26/17 A2977 RMK A01 T02630173  RH  058%=      5-min Rain = 0
KAHS 230700Z 21011KT 26/17 A2977 RMK A01 T02630174  RH  058%=      5-min Rain = 0
KAHS 230701Z 20009KT 26/17 A2977 RMK A01 T02630174  RH  058%=      5-min Rain = 0
KAHS 230702Z 21009KT 26/17 A2977 RMK A01 T02630174  RH  058%=      5-min Rain = 0
KAHS 230703Z 20011G17KT 26/17 A2977 RMK A01 T02620174  RH  058%=      5-min Rain = 0
KAHS 230704Z 20010KT 26/18 A2977 RMK A01 T02630175  RH  058%=      5-min Rain = 0
KAHS 230705Z 20009KT 26/18 A2977 RMK A01 T02640175  RH  058%=      5-min Rain = 0
KAHS 230706Z 20008G13KT 26/18 A2977 RMK A01 T02630175  RH  058%=      5-min Rain = 0
KAHS 230707Z 20011KT 26/18 A2977 RMK A01 T02630176  RH  059%=      5-min Rain = 0
KAHS 230708Z 20011KT 26/18 A2977 RMK A01 T02630176  RH  059%=      5-min Rain = 0
KAHS 230709Z 20011KT 26/18 A2977 RMK A01 T02640176  RH  059%=      5-min Rain = 0
KAHS 230710Z 20009KT 26/18 A2977 RMK A01 T02640176  RH  059%=      5-min Rain = 0
KAHS 230711Z 19009KT 26/18 A2977 RMK A01 T02630176  RH  059%=      5-min Rain = 0
KAHS 230712Z 20008KT 26/18 A2977 RMK A01 T02630176  RH  059%=      5-min Rain = 0
KAHS 230713Z 19008KT 26/18 A2977 RMK A01 T02620176  RH  059%=      5-min Rain = 0
KAHS 230714Z 20009KT 26/18 A2977 RMK A01 T02620177  RH  059%=      5-min Rain = 0
KAHS 230715Z 19010KT 26/18 A2977 RMK A01 T02630177  RH  059%=      5-min Rain = 0
KAHS 230716Z 19007KT 26/18 A2977 RMK A01 T02630177  RH  059%=      5-min Rain = 0
KAHS 230717Z 19008KT 26/18 A2977 RMK A01 T02610177  RH  060%=      5-min Rain = 0
KAHS 230718Z 20009KT 26/18 A2977 RMK A01 T02610178  RH  060%=      5-min Rain = 0
KAHS 230719Z 19008KT 26/18 A2977 RMK A01 T02610178  RH  060%=      5-min Rain = 0
KAHS 230720Z 20009KT 26/18 A2977 RMK A01 T02600177  RH  060%=      5-min Rain = 0
KAHS 230721Z 20010KT 26/18 A2977 RMK A01 T02600177  RH  060%=      5-min Rain = 0
KAHS 230722Z 20007KT 26/18 A2977 RMK A01 T02600177  RH  060%=      5-min Rain = 0
KAHS 230723Z 20011KT 26/18 A2977 RMK A01 T02590176  RH  060%=      5-min Rain = 0
KAHS 230724Z 20009KT 26/18 A2977 RMK A01 T02590176  RH  060%=      5-min Rain = 0
KAHS 230725Z 20008KT 26/18 A2977 RMK A01 T02590176  RH  060%=      5-min Rain = 0
KAHS 230726Z 19008KT 26/18 A2977 RMK A01 T02590176  RH  060%=      5-min Rain = 0
KAHS 230727Z 20009KT 26/18 A2977 RMK A01 T02580176  RH  061%=      5-min Rain = 0
KAHS 230728Z 21009KT 26/18 A2977 RMK A01 T02580176  RH  061%=      5-min Rain = 0
KAHS 230729Z 20009KT 26/18 A2977 RMK A01 T02580176  RH  061%=      5-min Rain = 0
KAHS 230730Z 21008KT 26/18 A2977 RMK A01 T02590176  RH  060%=      5-min Rain = 0
KAHS 230731Z 21009KT 26/18 A2977 RMK A01 T02580176  RH  060%=      5-min Rain = 0
KAHS 230732Z 21008KT 26/18 A2977 RMK A01 T02580176  RH  061%=      5-min Rain = 0
KAHS 230733Z 20008KT 26/18 A2977 RMK A01 T02570176  RH  061%=      5-min Rain = 0
KAHS 230734Z 21009KT 26/18 A2977 RMK A01 T02570176  RH  061%=      5-min Rain = 0
KAHS 230735Z 21008KT 26/18 A2977 RMK A01 T02570176  RH  061%=      5-min Rain = 0
KAHS 230736Z 21008KT 26/18 A2977 RMK A01 T02560176  RH  061%=      5-min Rain = 0
KAHS 230737Z 21007KT 26/18 A2977 RMK A01 T02560176  RH  061%=      5-min Rain = 0
KAHS 230738Z 21006KT 26/18 A2977 RMK A01 T02550176  RH  061%=      5-min Rain = 0
KAHS 230739Z 20008G14KT 26/18 A2977 RMK A01 T02550177  RH  062%=      5-min Rain = 0
KAHS 230740Z 21008KT 26/18 A2977 RMK A01 T02550177  RH  062%=      5-min Rain = 0
KAHS 230741Z 20008KT 26/18 A2977 RMK A01 T02550177  RH  062%=      5-min Rain = 0
KAHS 230742Z 20011KT 26/18 A2977 RMK A01 T02550177  RH  062%=      5-min Rain = 0
KAHS 230743Z 20009KT 26/18 A2977 RMK A01 T02550177  RH  062%=      5-min Rain = 0
KAHS 230744Z 20007KT 26/18 A2977 RMK A01 T02550177  RH  062%=      5-min Rain = 0
KAHS 230745Z 20011KT 26/18 A2977 RMK A01 T02550178  RH  062%=      5-min Rain = 0
KAHS 230746Z 20008KT 26/18 A2977 RMK A01 T02550178  RH  062%=      5-min Rain = 0
KAHS 230747Z 20009KT 26/18 A2977 RMK A01 T02550178  RH  063%=      5-min Rain = 0
KAHS 230748Z 20007KT 25/18 A2977 RMK A01 T02540179  RH  063%=      5-min Rain = 0
KAHS 230749Z 20008KT 25/18 A2977 RMK A01 T02540178  RH  063%=      5-min Rain = 0
KAHS 230750Z 20009KT 25/18 A2977 RMK A01 T02530179  RH  063%=      5-min Rain = 0
KAHS 230751Z 20009KT 25/18 A2977 RMK A01 T02530179  RH  063%=      5-min Rain = 0
KAHS 230752Z 20008KT 25/18 A2977 RMK A01 T02530180  RH  064%=      5-min Rain = 0
KAHS 230753Z 20010KT 25/18 A2977 RMK A01 T02530180  RH  064%=      5-min Rain = 0
KAHS 230754Z 20009KT 25/18 A2977 RMK A01 T02530180  RH  064%=      5-min Rain = 0
KAHS 230755Z 20009KT 25/18 A2977 RMK A01 T02540180  RH  064%=      5-min Rain = 0
KAHS 230756Z 20008KT 25/18 A2977 RMK A01 T02530180  RH  064%=      5-min Rain = 0
KAHS 230757Z 20008KT 25/18 A2977 RMK A01 T02530180  RH  064%=      5-min Rain = 0
KAHS 230758Z 20008KT 25/18 A2977 RMK A01 T02530181  RH  064%=      5-min Rain = 0
KAHS 230759Z 20008KT 25/18 A2977 RMK A01 T02530181  RH  064%=      5-min Rain = 0
KAHS 230800Z 20008KT 25/18 A2977 RMK A01 T02530181  RH  065%=      5-min Rain = 0
KAHS 230801Z 21007KT 25/18 A2977 RMK A01 T02530181  RH  065%=      5-min Rain = 0
KAHS 230802Z 20009KT 25/18 A2977 RMK A01 T02520181  RH  065%=      5-min Rain = 0
KAHS 230803Z 20007KT 25/18 A2977 RMK A01 T02520181  RH  065%=      5-min Rain = 0
KAHS 230804Z 20008KT 25/18 A2977 RMK A01 T02520182  RH  065%=      5-min Rain = 0
KAHS 230805Z 20008KT 25/18 A2977 RMK A01 T02520182  RH  065%=      5-min Rain = 0
KAHS 230806Z 20008KT 25/18 A2977 RMK A01 T02520182  RH  065%=      5-min Rain = 0
KAHS 230807Z 21009KT 25/18 A2977 RMK A01 T02520182  RH  065%=      5-min Rain = 0
KAHS 230808Z 20009KT 25/18 A2977 RMK A01 T02520182  RH  065%=      5-min Rain = 0
KAHS 230809Z 20008KT 25/18 A2977 RMK A01 T02530183  RH  065%=      5-min Rain = 0
KAHS 230810Z 20009KT 25/18 A2977 RMK A01 T02520182  RH  065%=      5-min Rain = 0
KAHS 230811Z 20009KT 25/18 A2977 RMK A01 T02520183  RH  065%=      5-min Rain = 0
KAHS 230812Z 19009KT 25/18 A2977 RMK A01 T02520183  RH  065%=      5-min Rain = 0
KAHS 230813Z 19009KT 25/18 A2978 RMK A01 T02520183  RH  065%=      5-min Rain = 0
KAHS 230814Z 20008KT 25/18 A2978 RMK A01 T02520183  RH  065%=      5-min Rain = 0
KAHS 230815Z 20009KT 25/18 A2978 RMK A01 T02510183  RH  066%=      5-min Rain = 0
KAHS 230816Z 20010KT 25/18 A2978 RMK A01 T02520183  RH  066%=      5-min Rain = 0
KAHS 230817Z 19008KT 25/18 A2978 RMK A01 T02520183  RH  065%=      5-min Rain = 0
KAHS 230818Z 19009KT 25/18 A2978 RMK A01 T02520183  RH  066%=      5-min Rain = 0
KAHS 230819Z 19009KT 25/18 A2978 RMK A01 T02510183  RH  066%=      5-min Rain = 0
KAHS 230820Z 19008KT 25/18 A2978 RMK A01 T02510184  RH  066%=      5-min Rain = 0
KAHS 230821Z 20007KT 25/18 A2978 RMK A01 T02500183  RH  066%=      5-min Rain = 0
KAHS 230822Z 19007KT 25/18 A2978 RMK A01 T02500184  RH  067%=      5-min Rain = 0
KAHS 230823Z 19007KT 25/18 A2978 RMK A01 T02490184  RH  067%=      5-min Rain = 0
KAHS 230824Z 19006KT 25/18 A2978 RMK A01 T02490184  RH  067%=      5-min Rain = 0
KAHS 230825Z 19007KT 25/18 A2978 RMK A01 T02490184  RH  067%=      5-min Rain = 0
KAHS 230826Z 20007KT 25/18 A2978 RMK A01 T02490184  RH  067%=      5-min Rain = 0
KAHS 230827Z 19006KT 25/19 A2978 RMK A01 T02490185  RH  068%=      5-min Rain = 0
KAHS 230828Z 19006KT 25/18 A2978 RMK A01 T02470184  RH  068%=      5-min Rain = 0
KAHS 230829Z 20008KT 25/19 A2978 RMK A01 T02470185  RH  068%=      5-min Rain = 0
KAHS 230830Z 19009KT 25/19 A2978 RMK A01 T02490185  RH  068%=      5-min Rain = 0
KAHS 230831Z 19007KT 25/19 A2978 RMK A01 T02490185  RH  068%=      5-min Rain = 0
KAHS 230832Z 19007KT 25/19 A2978 RMK A01 T02480185  RH  068%=      5-min Rain = 0
KAHS 230833Z 19006KT 25/19 A2978 RMK A01 T02480186  RH  068%=      5-min Rain = 0
KAHS 230834Z 20005KT 25/19 A2978 RMK A01 T02470185  RH  068%=      5-min Rain = 0
KAHS 230835Z 20008G15KT 25/19 A2978 RMK A01 T02470185  RH  069%=      5-min Rain = 0
KAHS 230836Z 19009KT 25/19 A2978 RMK A01 T02480186  RH  068%=      5-min Rain = 0
KAHS 230837Z 19008KT 25/19 A2978 RMK A01 T02490185  RH  068%=      5-min Rain = 0
KAHS 230838Z 20006KT 25/19 A2978 RMK A01 T02480185  RH  068%=      5-min Rain = 0
KAHS 230839Z 19007KT 25/19 A2979 RMK A01 T02480185  RH  068%=      5-min Rain = 0
KAHS 230840Z 20007KT 25/19 A2979 RMK A01 T02470185  RH  068%=      5-min Rain = 0
KAHS 230841Z 20007KT 25/19 A2978 RMK A01 T02480186  RH  068%=      5-min Rain = 0
KAHS 230842Z 19006KT 25/19 A2978 RMK A01 T02470185  RH  069%=      5-min Rain = 0
KAHS 230843Z 20006KT 25/19 A2979 RMK A01 T02470186  RH  069%=      5-min Rain = 0
KAHS 230844Z 19007KT 25/19 A2979 RMK A01 T02460185  RH  069%=      5-min Rain = 0
KAHS 230845Z 21007KT 25/19 A2979 RMK A01 T02460186  RH  069%=      5-min Rain = 0
KAHS 230846Z 21009KT 25/19 A2979 RMK A01 T02460186  RH  069%=      5-min Rain = 0
KAHS 230847Z 20009KT 25/19 A2979 RMK A01 T02480185  RH  068%=      5-min Rain = 0
KAHS 230848Z 20009KT 25/19 A2979 RMK A01 T02480185  RH  068%=      5-min Rain = 0
KAHS 230849Z 20009KT 25/19 A2979 RMK A01 T02480185  RH  068%=      5-min Rain = 0
KAHS 230850Z 21008KT 25/19 A2979 RMK A01 T02490185  RH  068%=      5-min Rain = 0
KAHS 230851Z 21008KT 25/19 A2979 RMK A01 T02490185  RH  068%=      5-min Rain = 0
KAHS 230852Z 21007KT 25/19 A2979 RMK A01 T02490185  RH  068%=      5-min Rain = 0
KAHS 230853Z 21007KT 25/19 A2979 RMK A01 T02480185  RH  068%=      5-min Rain = 0
KAHS 230854Z 20006KT 25/19 A2979 RMK A01 T02470185  RH  068%=      5-min Rain = 0
KAHS 230855Z 19006KT 25/19 A2979 RMK A01 T02470185  RH  068%=      5-min Rain = 0
KAHS 230856Z 19007KT 25/19 A2979 RMK A01 T02460185  RH  069%=      5-min Rain = 0
KAHS 230857Z 20007KT 25/19 A2979 RMK A01 T02460185  RH  069%=      5-min Rain = 0
KAHS 230858Z 20007KT 25/19 A2979 RMK A01 T02460185  RH  069%=      5-min Rain = 0
KAHS 230859Z 20008KT 25/19 A2979 RMK A01 T02460185  RH  069%=      5-min Rain = 0
KAHS 230900Z 20009KT 25/19 A2979 RMK A01 T02470185  RH  069%=      5-min Rain = 0
KAHS 230901Z 20007KT 25/19 A2979 RMK A01 T02470185  RH  068%=      5-min Rain = 0
KAHS 230902Z 20008KT 25/19 A2979 RMK A01 T02470185  RH  069%=      5-min Rain = 0
KAHS 230903Z 19007KT 25/19 A2979 RMK A01 T02460185  RH  069%=      5-min Rain = 0
KAHS 230904Z 20007KT 25/19 A2979 RMK A01 T02460185  RH  069%=      5-min Rain = 0
KAHS 230905Z 20006KT 25/19 A2979 RMK A01 T02460185  RH  069%=      5-min Rain = 0
KAHS 230906Z 20008KT 25/19 A2979 RMK A01 T02450185  RH  069%=      5-min Rain = 0
KAHS 230907Z 20007KT 25/19 A2979 RMK A01 T02450185  RH  069%=      5-min Rain = 0
KAHS 230908Z 19008KT 25/19 A2979 RMK A01 T02450185  RH  069%=      5-min Rain = 0
KAHS 230909Z 19006KT 25/19 A2979 RMK A01 T02450185  RH  069%=      5-min Rain = 0
KAHS 230910Z 19006KT 24/19 A2979 RMK A01 T02440185  RH  070%=      5-min Rain = 0
KAHS 230911Z 19006KT 24/19 A2979 RMK A01 T02430186  RH  070%=      5-min Rain = 0
KAHS 230912Z 19006KT 24/19 A2979 RMK A01 T02420185  RH  070%=      5-min Rain = 0
KAHS 230913Z 18006KT 24/19 A2979 RMK A01 T02430186  RH  071%=      5-min Rain = 0
KAHS 230914Z 19006KT 24/19 A298 RMK A01 T02420186  RH  071%=      5-min Rain = 0
KAHS 230915Z 18005KT 24/19 A298 RMK A01 T02420186  RH  071%=      5-min Rain = 0
KAHS 230916Z 18004KT 24/19 A298 RMK A01 T02410186  RH  071%=      5-min Rain = 0
KAHS 230917Z 18006KT 24/19 A298 RMK A01 T02400186  RH  072%=      5-min Rain = 0
KAHS 230918Z 18005KT 24/19 A298 RMK A01 T02400187  RH  072%=      5-min Rain = 0
KAHS 230919Z 18005KT 24/19 A298 RMK A01 T02390186  RH  072%=      5-min Rain = 0
KAHS 230920Z 18006KT 24/19 A298 RMK A01 T02390186  RH  073%=      5-min Rain = 0
KAHS 230921Z 18005KT 24/19 A298 RMK A01 T02380187  RH  073%=      5-min Rain = 0
KAHS 230922Z 18007KT 24/19 A298 RMK A01 T02380186  RH  073%=      5-min Rain = 0
KAHS 230923Z 18007KT 24/19 A298 RMK A01 T02380186  RH  073%=      5-min Rain = 0
KAHS 230924Z 18006KT 24/19 A298 RMK A01 T02370186  RH  073%=      5-min Rain = 0
KAHS 230925Z 18007KT 24/19 A298 RMK A01 T02380186  RH  073%=      5-min Rain = 0
KAHS 230926Z 18007KT 24/19 A298 RMK A01 T02380186  RH  073%=      5-min Rain = 0
KAHS 230927Z 18008KT 24/19 A298 RMK A01 T02390186  RH  072%=      5-min Rain = 0
KAHS 230928Z 18007KT 24/19 A298 RMK A01 T02390186  RH  072%=      5-min Rain = 0
KAHS 230929Z 18006KT 24/19 A298 RMK A01 T02390186  RH  072%=      5-min Rain = 0
KAHS 230930Z 18007KT 24/19 A298 RMK A01 T02400186  RH  072%=      5-min Rain = 0
KAHS 230931Z 19007KT 24/19 A298 RMK A01 T02400186  RH  072%=      5-min Rain = 0
KAHS 230932Z 19008KT 24/19 A298 RMK A01 T02400186  RH  072%=      5-min Rain = 0
KAHS 230933Z 19007KT 24/19 A298 RMK A01 T02400186  RH  072%=      5-min Rain = 0
KAHS 230934Z 19006KT 24/19 A298 RMK A01 T02400186  RH  072%=      5-min Rain = 0
KAHS 230935Z 19008KT 24/19 A298 RMK A01 T02400186  RH  072%=      5-min Rain = 0
KAHS 230936Z 19007KT 24/19 A298 RMK A01 T02400186  RH  072%=      5-min Rain = 0
KAHS 230937Z 19007KT 24/19 A298 RMK A01 T02400186  RH  072%=      5-min Rain = 0
KAHS 230938Z 19007KT 24/19 A298 RMK A01 T02400186  RH  072%=      5-min Rain = 0
KAHS 230939Z 19007KT 24/19 A298 RMK A01 T02390186  RH  072%=      5-min Rain = 0
KAHS 230940Z 19008KT 24/19 A298 RMK A01 T02390187  RH  072%=      5-min Rain = 0
KAHS 230941Z 19008KT 24/19 A298 RMK A01 T02400187  RH  072%=      5-min Rain = 0
KAHS 230942Z 19008KT 24/19 A298 RMK A01 T02400187  RH  072%=      5-min Rain = 0
KAHS 230943Z 19008KT 24/19 A298 RMK A01 T02400187  RH  072%=      5-min Rain = 0
KAHS 230944Z 19009KT 24/19 A298 RMK A01 T02400187  RH  072%=      5-min Rain = 0
KAHS 230945Z 19008KT 24/19 A298 RMK A01 T02400187  RH  072%=      5-min Rain = 0
KAHS 230946Z 19007KT 24/19 A298 RMK A01 T02410187  RH  072%=      5-min Rain = 0
KAHS 230947Z 19009KT 24/19 A298 RMK A01 T02400187  RH  072%=      5-min Rain = 0
KAHS 230948Z 19007KT 24/19 A298 RMK A01 T02410188  RH  072%=      5-min Rain = 0
KAHS 230949Z 19009KT 24/19 A298 RMK A01 T02410187  RH  072%=      5-min Rain = 0
KAHS 230950Z 19007KT 24/19 A298 RMK A01 T02410187  RH  072%=      5-min Rain = 0
KAHS 230951Z 19009KT 24/19 A298 RMK A01 T02410187  RH  072%=      5-min Rain = 0
KAHS 230952Z 19008KT 24/19 A298 RMK A01 T02410187  RH  072%=      5-min Rain = 0
KAHS 230953Z 19008KT 24/19 A2981 RMK A01 T02410187  RH  072%=      5-min Rain = 0
KAHS 230954Z 19008KT 24/19 A2981 RMK A01 T02400187  RH  072%=      5-min Rain = 0
KAHS 230955Z 19007KT 24/19 A298 RMK A01 T02400187  RH  072%=      5-min Rain = 0
KAHS 230956Z 19009KT 24/19 A2981 RMK A01 T02400187  RH  072%=      5-min Rain = 0
KAHS 230957Z 20008KT 24/19 A2981 RMK A01 T02400187  RH  072%=      5-min Rain = 0
KAHS 230958Z 20009KT 24/19 A298 RMK A01 T02400187  RH  072%=      5-min Rain = 0
KAHS 230959Z 20007KT 24/19 A298 RMK A01 T02400187  RH  072%=      5-min Rain = 0
KAHS 231000Z 20008KT 24/19 A298 RMK A01 T02390186  RH  072%=      5-min Rain = 0
KAHS 231001Z 20007KT 24/19 A298 RMK A01 T02390187  RH  072%=      5-min Rain = 0
KAHS 231002Z 20008KT 24/19 A298 RMK A01 T02390187  RH  072%=      5-min Rain = 0
KAHS 231003Z 20009KT 24/19 A298 RMK A01 T02390187  RH  072%=      5-min Rain = 0
KAHS 231004Z 20008KT 24/19 A298 RMK A01 T02400186  RH  072%=      5-min Rain = 0
KAHS 231005Z 20009KT 24/19 A298 RMK A01 T02400186  RH  072%=      5-min Rain = 0
KAHS 231006Z 20008KT 24/19 A298 RMK A01 T02400186  RH  072%=      5-min Rain = 0
KAHS 231007Z 20008KT 24/19 A298 RMK A01 T02400186  RH  072%=      5-min Rain = 0
KAHS 231008Z 20008KT 24/19 A298 RMK A01 T02400187  RH  072%=      5-min Rain = 0
KAHS 231009Z 20008KT 24/19 A298 RMK A01 T02400186  RH  072%=      5-min Rain = 0
KAHS 231010Z 20009KT 24/19 A298 RMK A01 T02400186  RH  072%=      5-min Rain = 0
KAHS 231011Z 20009KT 24/19 A2981 RMK A01 T02400186  RH  072%=      5-min Rain = 0
KAHS 231012Z 19007KT 24/19 A2981 RMK A01 T02400186  RH  072%=      5-min Rain = 0
KAHS 231013Z 19006KT 24/19 A2981 RMK A01 T02400186  RH  072%=      5-min Rain = 0
KAHS 231014Z 19008KT 24/19 A2981 RMK A01 T02400186  RH  072%=      5-min Rain = 0
KAHS 231015Z 19007KT 24/19 A2981 RMK A01 T02400186  RH  072%=      5-min Rain = 0
KAHS 231016Z 19007KT 24/19 A2981 RMK A01 T02400186  RH  072%=      5-min Rain = 0
KAHS 231017Z 18006KT 24/19 A2981 RMK A01 T02410186  RH  072%=      5-min Rain = 0
KAHS 231018Z 18006KT 24/19 A2981 RMK A01 T02400186  RH  072%=      5-min Rain = 0
KAHS 231019Z 19006KT 24/19 A2981 RMK A01 T02400187  RH  072%=      5-min Rain = 0
KAHS 231020Z 19006KT 24/19 A2981 RMK A01 T02400186  RH  072%=      5-min Rain = 0
KAHS 231021Z 19005KT 24/19 A2981 RMK A01 T02400186  RH  072%=      5-min Rain = 0
KAHS 231022Z 19005KT 24/19 A2981 RMK A01 T02410187  RH  072%=      5-min Rain = 0
KAHS 231023Z 18003KT 24/19 A2981 RMK A01 T02410186  RH  072%=      5-min Rain = 0
KAHS 231024Z 16003KT 24/19 A2982 RMK A01 T02400186  RH  072%=      5-min Rain = 0
KAHS 231025Z 15002KT 24/19 A2982 RMK A01 T02390186  RH  072%=      5-min Rain = 0
KAHS 231026Z 14004KT 24/19 A2982 RMK A01 T02380186  RH  072%=      5-min Rain = 0
KAHS 231027Z 14004KT 24/19 A2982 RMK A01 T02380187  RH  073%=      5-min Rain = 0
KAHS 231028Z 12004KT 24/19 A2982 RMK A01 T02370187  RH  073%=      5-min Rain = 0
KAHS 231029Z 11005KT 24/19 A2982 RMK A01 T02360186  RH  074%=      5-min Rain = 0
KAHS 231030Z 11005KT 24/19 A2982 RMK A01 T02350186  RH  074%=      5-min Rain = 0
KAHS 231031Z 10006KT 23/19 A2982 RMK A01 T02340187  RH  075%=      5-min Rain = 0
KAHS 231032Z 08006KT 23/19 A2982 RMK A01 T02340187  RH  075%=      5-min Rain = 0
KAHS 231033Z 07006KT 23/19 A2982 RMK A01 T02330186  RH  075%=      5-min Rain = 0
KAHS 231034Z 08007KT 23/19 A2982 RMK A01 T02320186  RH  075%=      5-min Rain = 0
KAHS 231035Z 08008KT 23/19 A2982 RMK A01 T02310186  RH  075%=      5-min Rain = 0
KAHS 231036Z 09009KT 23/19 A2982 RMK A01 T02310185  RH  075%=      5-min Rain = 0
KAHS 231037Z 09008KT 23/19 A2982 RMK A01 T02320186  RH  075%=      5-min Rain = 0
KAHS 231038Z 08007KT 23/19 A2982 RMK A01 T02320186  RH  075%=      5-min Rain = 0
KAHS 231039Z 08007KT 23/19 A2982 RMK A01 T02320186  RH  075%=      5-min Rain = 0
KAHS 231040Z 08006KT 23/19 A2982 RMK A01 T02320186  RH  075%=      5-min Rain = 0
KAHS 231041Z 10005KT 23/19 A2983 RMK A01 T02320185  RH  075%=      5-min Rain = 0
KAHS 231042Z 10004KT 23/19 A2983 RMK A01 T02310185  RH  075%=      5-min Rain = 0
KAHS 231043Z 10005KT 23/18 A2983 RMK A01 T02300184  RH  076%=      5-min Rain = 0
KAHS 231044Z 09005KT 23/18 A2983 RMK A01 T02290184  RH  076%=      5-min Rain = 0
KAHS 231045Z 09006KT 23/18 A2983 RMK A01 T02280184  RH  076%=      5-min Rain = 0
KAHS 231046Z 09005KT 23/18 A2983 RMK A01 T02280184  RH  076%=      5-min Rain = 0
KAHS 231047Z 09005KT 23/18 A2983 RMK A01 T02270184  RH  077%=      5-min Rain = 0
KAHS 231048Z 10005KT 23/18 A2983 RMK A01 T02260184  RH  077%=      5-min Rain = 0
KAHS 231049Z 10005KT 23/18 A2983 RMK A01 T02260184  RH  077%=      5-min Rain = 0
KAHS 231050Z 10005KT 23/18 A2983 RMK A01 T02260184  RH  077%=      5-min Rain = 0
KAHS 231051Z 09004KT 23/18 A2982 RMK A01 T02270184  RH  077%=      5-min Rain = 0
KAHS 231052Z 11003KT 23/18 A2983 RMK A01 T02270184  RH  076%=      5-min Rain = 0
KAHS 231053Z 12005KT 23/18 A2983 RMK A01 T02270184  RH  077%=      5-min Rain = 0
KAHS 231054Z 13005KT 23/18 A2983 RMK A01 T02270184  RH  077%=      5-min Rain = 0
KAHS 231055Z 13004KT 23/18 A2983 RMK A01 T02270184  RH  076%=      5-min Rain = 0
KAHS 231056Z 12003KT 23/18 A2982 RMK A01 T02280184  RH  076%=      5-min Rain = 0
KAHS 231057Z 11002KT 23/18 A2982 RMK A01 T02280184  RH  076%=      5-min Rain = 0
KAHS 231058Z 11004KT 23/18 A2982 RMK A01 T02280184  RH  076%=      5-min Rain = 0
KAHS 231059Z 11005KT 23/18 A2982 RMK A01 T02280184  RH  076%=      5-min Rain = 0
KAHS 231100Z 09003KT 23/18 A2982 RMK A01 T02280184  RH  076%=      5-min Rain = 0
KAHS 231101Z 08004KT 23/18 A2982 RMK A01 T02270184  RH  076%=      5-min Rain = 0
KAHS 231102Z 08007KT 23/18 A2982 RMK A01 T02260184  RH  077%=      5-min Rain = 0
KAHS 231103Z 08005KT 23/18 A2982 RMK A01 T02270184  RH  077%=      5-min Rain = 0
KAHS 231104Z 08005KT 23/18 A2983 RMK A01 T02260183  RH  077%=      5-min Rain = 0
KAHS 231105Z 08006KT 23/18 A2983 RMK A01 T02250183  RH  077%=      5-min Rain = 0
KAHS 231106Z 08006KT 22/18 A2983 RMK A01 T02240183  RH  078%=      5-min Rain = 0
KAHS 231107Z 07005KT 22/18 A2983 RMK A01 T02230183  RH  078%=      5-min Rain = 0
KAHS 231108Z 07007KT 22/18 A2983 RMK A01 T02230183  RH  078%=      5-min Rain = 0
KAHS 231109Z 07008KT 22/18 A2983 RMK A01 T02230184  RH  079%=      5-min Rain = 0
KAHS 231110Z 07008KT 22/18 A2983 RMK A01 T02240184  RH  078%=      5-min Rain = 0
KAHS 231111Z 07008KT 22/18 A2983 RMK A01 T02240184  RH  078%=      5-min Rain = 0
KAHS 231112Z 07007KT 23/18 A2983 RMK A01 T02250184  RH  078%=      5-min Rain = 0
KAHS 231113Z 07008KT 23/18 A2983 RMK A01 T02250184  RH  078%=      5-min Rain = 0
KAHS 231114Z 08008KT 22/18 A2984 RMK A01 T02240184  RH  078%=      5-min Rain = 0
KAHS 231115Z 08007KT 22/18 A2984 RMK A01 T02240184  RH  078%=      5-min Rain = 0
KAHS 231116Z 09007KT 22/18 A2984 RMK A01 T02240184  RH  078%=      5-min Rain = 0
KAHS 231117Z 10007KT 22/18 A2984 RMK A01 T02240184  RH  078%=      5-min Rain = 0
KAHS 231118Z 10007KT 22/18 A2984 RMK A01 T02240184  RH  078%=      5-min Rain = 0
KAHS 231119Z 10007KT 22/18 A2984 RMK A01 T02240184  RH  078%=      5-min Rain = 0
KAHS 231120Z 11006KT 22/18 A2984 RMK A01 T02240184  RH  078%=      5-min Rain = 0
KAHS 231121Z 11006KT 22/18 A2984 RMK A01 T02230184  RH  078%=      5-min Rain = 0
KAHS 231122Z 11008KT 22/18 A2984 RMK A01 T02230184  RH  078%=      5-min Rain = 0
KAHS 231123Z 12007KT 22/18 A2984 RMK A01 T02230184  RH  078%=      5-min Rain = 0
KAHS 231124Z 12008KT 22/18 A2984 RMK A01 T02240184  RH  078%=      5-min Rain = 0
KAHS 231125Z 13007KT 23/18 A2984 RMK A01 T02250184  RH  078%=      5-min Rain = 0
KAHS 231126Z 13007KT 23/18 A2984 RMK A01 T02260184  RH  077%=      5-min Rain = 0
KAHS 231127Z 13007KT 23/18 A2984 RMK A01 T02270184  RH  077%=      5-min Rain = 0
KAHS 231128Z 13008KT 23/18 A2984 RMK A01 T02270184  RH  076%=      5-min Rain = 0
KAHS 231129Z 13007KT 23/18 A2984 RMK A01 T02270184  RH  076%=      5-min Rain = 0
KAHS 231130Z 14006KT 23/18 A2984 RMK A01 T02270184  RH  076%=      5-min Rain = 0
KAHS 231131Z 14007KT 23/18 A2984 RMK A01 T02270184  RH  076%=      5-min Rain = 0
KAHS 231132Z 13007KT 23/18 A2984 RMK A01 T02270184  RH  076%=      5-min Rain = 0
KAHS 231133Z 14007KT 23/18 A2984 RMK A01 T02270184  RH  076%=      5-min Rain = 0
KAHS 231134Z 13007KT 23/18 A2984 RMK A01 T02270184  RH  076%=      5-min Rain = 0
KAHS 231135Z 13007KT 23/18 A2984 RMK A01 T02270184  RH  077%=      5-min Rain = 0
KAHS 231136Z 13008KT 23/18 A2985 RMK A01 T02260184  RH  077%=      5-min Rain = 0
KAHS 231137Z 13008KT 23/18 A2985 RMK A01 T02270184  RH  077%=      5-min Rain = 0
KAHS 231138Z 13008KT 23/18 A2985 RMK A01 T02270184  RH  077%=      5-min Rain = 0
KAHS 231139Z 13007KT 23/18 A2985 RMK A01 T02270184  RH  077%=      5-min Rain = 0
KAHS 231140Z 12007KT 23/18 A2985 RMK A01 T02270184  RH  077%=      5-min Rain = 0
KAHS 231141Z 12007KT 23/18 A2985 RMK A01 T02270184  RH  077%=      5-min Rain = 0
KAHS 231142Z 12006KT 23/18 A2985 RMK A01 T02270184  RH  077%=      5-min Rain = 0
KAHS 231143Z 12007KT 23/18 A2985 RMK A01 T02270184  RH  077%=      5-min Rain = 0
KAHS 231144Z 12007KT 23/18 A2985 RMK A01 T02260184  RH  077%=      5-min Rain = 0
KAHS 231145Z 12007KT 23/18 A2985 RMK A01 T02260184  RH  077%=      5-min Rain = 0
KAHS 231146Z 12007KT 23/18 A2985 RMK A01 T02250184  RH  077%=      5-min Rain = 0
KAHS 231147Z 10008KT 23/18 A2985 RMK A01 T02250184  RH  078%=      5-min Rain = 0
KAHS 231148Z 09007KT 22/18 A2986 RMK A01 T02240183  RH  078%=      5-min Rain = 0
KAHS 231149Z 08006KT 22/18 A2986 RMK A01 T02210183  RH  079%=      5-min Rain = 0
KAHS 231150Z 07005KT 22/18 A2986 RMK A01 T02180183  RH  080%=      5-min Rain = 0
KAHS 231151Z 07007KT 22/18 A2986 RMK A01 T02160182  RH  081%=      5-min Rain = 0
KAHS 231152Z 07007KT 21/18 A2986 RMK A01 T02140183  RH  082%=      5-min Rain = 0
KAHS 231153Z 08007KT 21/18 A2986 RMK A01 T02130183  RH  083%=      5-min Rain = 0
KAHS 231154Z 08006KT 21/18 A2986 RMK A01 T02120183  RH  084%=      5-min Rain = 0
KAHS 231155Z 08006KT 21/18 A2986 RMK A01 T02110183  RH  084%=      5-min Rain = 0
KAHS 231156Z 09007KT 21/18 A2986 RMK A01 T02110184  RH  085%=      5-min Rain = 0
KAHS 231157Z 09008KT 21/18 A2986 RMK A01 T02110184  RH  085%=      5-min Rain = 0
KAHS 231158Z 09007KT 21/18 A2986 RMK A01 T02110184  RH  085%=      5-min Rain = 0
KAHS 231159Z 10006KT 21/18 A2986 RMK A01 T02110184  RH  085%=      5-min Rain = 0
KAHS 231200Z 11007KT 21/18 A2986 RMK A01 T02110184  RH  085%=      5-min Rain = 0
KAHS 231201Z 11007KT 21/19 A2986 RMK A01 T02120185  RH  085%=      5-min Rain = 0
KAHS 231202Z 11006KT 21/19 A2986 RMK A01 T02140186  RH  084%=      5-min Rain = 0
KAHS 231203Z 12006KT 22/19 A2986 RMK A01 T02150185  RH  083%=      5-min Rain = 0
KAHS 231204Z 12007KT 22/19 A2986 RMK A01 T02150186  RH  083%=      5-min Rain = 0
KAHS 231205Z 12006KT 22/19 A2986 RMK A01 T02160186  RH  083%=      5-min Rain = 0
KAHS 231206Z 13007KT 22/19 A2986 RMK A01 T02170186  RH  083%=      5-min Rain = 0
KAHS 231207Z 14006KT 22/19 A2986 RMK A01 T02180187  RH  083%=      5-min Rain = 0
KAHS 231208Z 13006KT 22/19 A2986 RMK A01 T02190187  RH  082%=      5-min Rain = 0
KAHS 231209Z 13007KT 22/19 A2986 RMK A01 T02190187  RH  082%=      5-min Rain = 0
KAHS 231210Z 13006KT 22/19 A2986 RMK A01 T02200188  RH  082%=      5-min Rain = 0
KAHS 231211Z 13006KT 22/19 A2986 RMK A01 T02210188  RH  082%=      5-min Rain = 0
KAHS 231212Z 12005KT 22/19 A2986 RMK A01 T02210188  RH  081%=      5-min Rain = 0
KAHS 231213Z 12006KT 22/19 A2986 RMK A01 T02210188  RH  081%=      5-min Rain = 0
KAHS 231214Z 12006KT 22/19 A2986 RMK A01 T02210188  RH  081%=      5-min Rain = 0
KAHS 231215Z 11007KT 22/19 A2986 RMK A01 T02210188  RH  081%=      5-min Rain = 0
KAHS 231216Z 11006KT 22/19 A2987 RMK A01 T02210188  RH  081%=      5-min Rain = 0
KAHS 231217Z 08006KT 22/19 A2987 RMK A01 T02220188  RH  081%=      5-min Rain = 0
KAHS 231218Z 08008KT 22/19 A2987 RMK A01 T02200186  RH  081%=      5-min Rain = 0
KAHS 231219Z 08010KT 22/18 A2987 RMK A01 T02160184  RH  082%=      5-min Rain = 0
KAHS 231220Z 09009KT 21/18 A2987 RMK A01 T02120184  RH  084%=      5-min Rain = 0
KAHS 231221Z 08008KT 21/19 A2987 RMK A01 T02110185  RH  085%=      5-min Rain = 0
KAHS 231222Z 09010KT 21/19 A2987 RMK A01 T02100186  RH  086%=      5-min Rain = 0
KAHS 231223Z 10008KT 21/19 A2987 RMK A01 T02100186  RH  086%=      5-min Rain = 0
KAHS 231224Z 10008KT 21/19 A2987 RMK A01 T02100187  RH  087%=      5-min Rain = 0
KAHS 231225Z 10007KT 21/19 A2987 RMK A01 T02100187  RH  087%=      5-min Rain = 0
KAHS 231226Z 10007KT 21/19 A2987 RMK A01 T02110188  RH  086%=      5-min Rain = 0
KAHS 231227Z 11006KT 21/19 A2987 RMK A01 T02110188  RH  086%=      5-min Rain = 0
KAHS 231228Z 11007KT 21/19 A2987 RMK A01 T02120188  RH  086%=      5-min Rain = 0
KAHS 231229Z 11006KT 21/19 A2987 RMK A01 T02120188  RH  086%=      5-min Rain = 0
KAHS 231230Z 11007KT 21/19 A2987 RMK A01 T02120188  RH  086%=      5-min Rain = 0
KAHS 231231Z 12006KT 21/19 A2987 RMK A01 T02120188  RH  086%=      5-min Rain = 0
KAHS 231232Z 13005KT 21/19 A2987 RMK A01 T02120189  RH  086%=      5-min Rain = 0
KAHS 231233Z 13006KT 21/19 A2987 RMK A01 T02120189  RH  086%=      5-min Rain = 0
KAHS 231234Z 12006KT 21/19 A2987 RMK A01 T02120189  RH  086%=      5-min Rain = 0
KAHS 231235Z 13006KT 21/19 A2987 RMK A01 T02120189  RH  086%=      5-min Rain = 0
KAHS 231236Z 13006KT 21/19 A2987 RMK A01 T02130189  RH  087%=      5-min Rain = 0
KAHS 231237Z 13007KT 21/19 A2987 RMK A01 T02130190  RH  087%=      5-min Rain = 0
KAHS 231238Z 13005KT 21/19 A2987 RMK A01 T02140190  RH  086%=      5-min Rain = 0
KAHS 231239Z 13006KT 21/19 A2987 RMK A01 T02140190  RH  086%=      5-min Rain = 0
KAHS 231240Z 12006KT 21/19 A2987 RMK A01 T02140191  RH  087%=      5-min Rain = 0
KAHS 231241Z 11007KT 21/19 A2987 RMK A01 T02140191  RH  087%=      5-min Rain = 0
KAHS 231242Z 10007KT 21/19 A2987 RMK A01 T02140191  RH  086%=      5-min Rain = 0
KAHS 231243Z 10008KT 21/19 A2987 RMK A01 T02140190  RH  086%=      5-min Rain = 0
KAHS 231244Z 10009KT 21/19 A2987 RMK A01 T02130189  RH  086%=      5-min Rain = 0
KAHS 231245Z 09011KT 21/19 A2987 RMK A01 T02130189  RH  086%=      5-min Rain = 0
KAHS 231246Z 09009KT 21/19 A2987 RMK A01 T02120188  RH  087%=      5-min Rain = 0
KAHS 231247Z 09010KT 21/19 A2987 RMK A01 T02110189  RH  087%=      5-min Rain = 0
KAHS 231248Z 10008KT 21/19 A2987 RMK A01 T02110189  RH  087%=      5-min Rain = 0
KAHS 231249Z 10007KT 21/19 A2987 RMK A01 T02100188  RH  087%=      5-min Rain = 0
KAHS 231250Z 10008KT 21/19 A2987 RMK A01 T02100189  RH  087%=      5-min Rain = 0
KAHS 231251Z 11007KT 21/19 A2987 RMK A01 T02110189  RH  087%=      5-min Rain = 0
KAHS 231252Z 12005KT 21/19 A2987 RMK A01 T02120190  RH  087%=      5-min Rain = 0
KAHS 231253Z 11007KT 21/19 A2987 RMK A01 T02120190  RH  087%=      5-min Rain = 0
KAHS 231254Z 11007KT 21/19 A2987 RMK A01 T02130191  RH  087%=      5-min Rain = 0
KAHS 231255Z 11008KT 21/19 A2987 RMK A01 T02140191  RH  087%=      5-min Rain = 0
KAHS 231256Z 11007KT 21/19 A2987 RMK A01 T02140191  RH  087%=      5-min Rain = 0
KAHS 231257Z 11007KT 21/19 A2987 RMK A01 T02140191  RH  087%=      5-min Rain = 0
KAHS 231258Z 11007KT 22/19 A2987 RMK A01 T02150192  RH  087%=      5-min Rain = 0
KAHS 231259Z 11007KT 22/19 A2987 RMK A01 T02150191  RH  086%=      5-min Rain = 0
KAHS 231300Z 11007KT 22/19 A2987 RMK A01 T02160192  RH  086%=      5-min Rain = 0
KAHS 231301Z 10007KT 22/19 A2987 RMK A01 T02160192  RH  086%=      5-min Rain = 0
KAHS 231302Z 11006KT 22/19 A2988 RMK A01 T02170193  RH  086%=      5-min Rain = 0
KAHS 231303Z 10006KT 22/19 A2988 RMK A01 T02170193  RH  086%=      5-min Rain = 0
KAHS 231304Z 10007KT 22/19 A2988 RMK A01 T02180193  RH  086%=      5-min Rain = 0
KAHS 231305Z 10006KT 22/19 A2988 RMK A01 T02180193  RH  086%=      5-min Rain = 0
KAHS 231306Z 10006KT 22/19 A2988 RMK A01 T02190194  RH  086%=      5-min Rain = 0
KAHS 231307Z 10006KT 22/19 A2988 RMK A01 T02190193  RH  085%=      5-min Rain = 0
KAHS 231308Z 09006KT 22/19 A2988 RMK A01 T02180191  RH  084%=      5-min Rain = 0
KAHS 231309Z 10005KT 22/19 A2988 RMK A01 T02170191  RH  085%=      5-min Rain = 0
KAHS 231310Z 10004KT 22/19 A2988 RMK A01 T02190192  RH  085%=      5-min Rain = 0
KAHS 231311Z 09005KT 22/19 A2988 RMK A01 T02190191  RH  084%=      5-min Rain = 0
KAHS 231312Z 10004KT 22/19 A2988 RMK A01 T02180189  RH  084%=      5-min Rain = 0
KAHS 231313Z 09005KT 22/19 A2988 RMK A01 T02180190  RH  084%=      5-min Rain = 0
KAHS 231314Z 09005KT 22/19 A2988 RMK A01 T02180190  RH  084%=      5-min Rain = 0
KAHS 231315Z 09004KT 22/19 A2988 RMK A01 T02180190  RH  084%=      5-min Rain = 0
KAHS 231316Z 09005KT 22/19 A2988 RMK A01 T02190191  RH  084%=      5-min Rain = 0
KAHS 231317Z 09006KT 22/19 A2988 RMK A01 T02190190  RH  084%=      5-min Rain = 0
KAHS 231318Z 09006KT 22/19 A2988 RMK A01 T02180190  RH  084%=      5-min Rain = 0
KAHS 231319Z 09006KT 22/19 A2988 RMK A01 T02180190  RH  084%=      5-min Rain = 0
KAHS 231320Z 09008KT 22/19 A2988 RMK A01 T02180191  RH  084%=      5-min Rain = 0
KAHS 231321Z 09006KT 22/19 A2988 RMK A01 T02180190  RH  084%=      5-min Rain = 0
KAHS 231322Z 09006KT 22/19 A2988 RMK A01 T02190191  RH  084%=      5-min Rain = 0
KAHS 231323Z 10007KT 22/19 A2988 RMK A01 T02190191  RH  084%=      5-min Rain = 0
KAHS 231324Z 09006KT 22/19 A2988 RMK A01 T02200192  RH  084%=      5-min Rain = 0
KAHS 231325Z 09007KT 22/19 A2988 RMK A01 T02210192  RH  084%=      5-min Rain = 0
KAHS 231326Z 09007KT 22/19 A2988 RMK A01 T02210192  RH  084%=      5-min Rain = 0
KAHS 231327Z 09008KT 22/19 A2988 RMK A01 T02220193  RH  084%=      5-min Rain = 0
KAHS 231328Z 10005KT 22/19 A2988 RMK A01 T02220193  RH  084%=      5-min Rain = 0
KAHS 231329Z 10005KT 22/19 A2988 RMK A01 T02230194  RH  083%=      5-min Rain = 0
KAHS 231330Z 10008KT 22/19 A2988 RMK A01 T02240194  RH  083%=      5-min Rain = 0
KAHS 231331Z 10007KT 23/20 A2988 RMK A01 T02250195  RH  083%=      5-min Rain = 0
KAHS 231332Z 10005KT 23/20 A2988 RMK A01 T02260196  RH  083%=      5-min Rain = 0
KAHS 231333Z 10007KT 23/20 A2988 RMK A01 T02280197  RH  083%=      5-min Rain = 0
KAHS 231334Z 11006KT 23/20 A2988 RMK A01 T02290198  RH  082%=      5-min Rain = 0
KAHS 231335Z 12008KT 23/20 A2988 RMK A01 T02310198  RH  082%=      5-min Rain = 0
KAHS 231336Z 13008KT 23/20 A2988 RMK A01 T02320199  RH  082%=      5-min Rain = 0
KAHS 231337Z 13009KT 23/20 A2988 RMK A01 T02330198  RH  081%=      5-min Rain = 0
KAHS 231338Z 12010KT 23/20 A2988 RMK A01 T02340199  RH  081%=      5-min Rain = 0
KAHS 231339Z 12010KT 24/20 A2988 RMK A01 T02350200  RH  081%=      5-min Rain = 0
KAHS 231340Z 13008KT 24/20 A2988 RMK A01 T02360201  RH  080%=      5-min Rain = 0
KAHS 231341Z 14009KT 24/20 A2988 RMK A01 T02370201  RH  080%=      5-min Rain = 0
KAHS 231342Z 13008KT 24/20 A2988 RMK A01 T02380201  RH  080%=      5-min Rain = 0
KAHS 231343Z 13008KT 24/20 A2988 RMK A01 T02380202  RH  080%=      5-min Rain = 0
KAHS 231344Z 14008KT 24/20 A2988 RMK A01 T02390202  RH  080%=      5-min Rain = 0
KAHS 231345Z 14010KT 24/20 A2988 RMK A01 T02390202  RH  079%=      5-min Rain = 0
KAHS 231346Z 15009KT 24/20 A2988 RMK A01 T02400202  RH  079%=      5-min Rain = 0
KAHS 231347Z 15010KT 24/20 A2988 RMK A01 T02410203  RH  079%=      5-min Rain = 0
KAHS 231348Z 15009KT 24/20 A2988 RMK A01 T02420202  RH  078%=      5-min Rain = 0
KAHS 231349Z 16008KT 24/20 A2988 RMK A01 T02440204  RH  078%=      5-min Rain = 0
KAHS 231350Z 16011KT 25/21 A2988 RMK A01 T02460206  RH  078%=      5-min Rain = 0
KAHS 231351Z 16010KT 25/21 A2988 RMK A01 T02480207  RH  078%=      5-min Rain = 0
KAHS 231352Z 16010KT 25/21 A2988 RMK A01 T02500208  RH  078%=      5-min Rain = 0
KAHS 231353Z 16010G15KT 25/21 A2988 RMK A01 T02520209  RH  077%=      5-min Rain = 0
KAHS 231354Z 16013KT 25/21 A2988 RMK A01 T02530209  RH  076%=      5-min Rain = 0
KAHS 231355Z 17012KT 25/21 A2988 RMK A01 T02540207  RH  075%=      5-min Rain = 0
KAHS 231356Z 17010KT 25/21 A2988 RMK A01 T02540206  RH  075%=      5-min Rain = 0
KAHS 231357Z 16010KT 25/21 A2988 RMK A01 T02540207  RH  075%=      5-min Rain = 0
KAHS 231358Z 15011KT 26/21 A2988 RMK A01 T02550207  RH  075%=      5-min Rain = 0
KAHS 231359Z 16012G17KT 26/21 A2988 RMK A01 T02560208  RH  075%=      5-min Rain = 0
KAHS 231400Z 16015KT 26/21 A2988 RMK A01 T02550205  RH  074%=      5-min Rain = 0
KAHS 231401Z 16011KT 25/21 A2988 RMK A01 T02540205  RH  074%=      5-min Rain = 0
KAHS 231402Z 15012KT 25/21 A2989 RMK A01 T02540205  RH  075%=      5-min Rain = 0
KAHS 231403Z 16012G17KT 25/21 A2989 RMK A01 T02540205  RH  074%=      5-min Rain = 0
KAHS 231404Z 15012KT 25/21 A2989 RMK A01 T02540205  RH  074%=      5-min Rain = 0
KAHS 231405Z 15015KT 25/21 A2989 RMK A01 T02540205  RH  075%=      5-min Rain = 0
KAHS 231406Z 16015G20KT 25/20 A2989 RMK A01 T02530204  RH  074%=      5-min Rain = 0
KAHS 231407Z 16015KT 25/20 A2989 RMK A01 T02530204  RH  074%=      5-min Rain = 0
KAHS 231408Z 16011G16KT 25/20 A2989 RMK A01 T02520203  RH  074%=      5-min Rain = 0
KAHS 231409Z 16013KT 25/20 A2989 RMK A01 T02530204  RH  074%=      5-min Rain = 0
KAHS 231410Z 15010KT 26/21 A2989 RMK A01 T02560208  RH  075%=      5-min Rain = 0
KAHS 231411Z 15013KT 26/21 A2989 RMK A01 T02590208  RH  073%=      5-min Rain = 0
KAHS 231412Z 15014KT 26/21 A2989 RMK A01 T02600206  RH  072%=      5-min Rain = 0
KAHS 231413Z 16015KT 26/21 A2989 RMK A01 T02610206  RH  072%=      5-min Rain = 0
KAHS 231414Z 15011KT 26/21 A2989 RMK A01 T02600206  RH  072%=      5-min Rain = 0
KAHS 231415Z 17014G20KT 26/21 A2989 RMK A01 T02610206  RH  072%=      5-min Rain = 0
KAHS 231416Z 17015G20KT 26/20 A2989 RMK A01 T02600203  RH  071%=      5-min Rain = 0
KAHS 231417Z 16015G20KT 26/20 A2989 RMK A01 T02590204  RH  072%=      5-min Rain = 0
KAHS 231418Z 16018KT 26/20 A2989 RMK A01 T02590204  RH  071%=      5-min Rain = 0
KAHS 231419Z 16015KT 26/20 A2988 RMK A01 T02580203  RH  072%=      5-min Rain = 0
KAHS 231420Z 15017G22KT 26/20 A2988 RMK A01 T02570204  RH  072%=      5-min Rain = 0
KAHS 231421Z 16013G18KT 26/20 A2988 RMK A01 T02570203  RH  072%=      5-min Rain = 0
KAHS 231422Z 17010G15KT 26/21 A2988 RMK A01 T02600206  RH  072%=      5-min Rain = 0
KAHS 231423Z 16013G19KT 26/20 A2988 RMK A01 T02600204  RH  071%=      5-min Rain = 0
KAHS 231424Z 15013KT 26/21 A2988 RMK A01 T02600205  RH  072%=      5-min Rain = 0
KAHS 231425Z 16014KT 26/21 A2988 RMK A01 T02600205  RH  072%=      5-min Rain = 0
KAHS 231426Z 16014G19KT 26/21 A2988 RMK A01 T02600205  RH  072%=      5-min Rain = 0
KAHS 231427Z 17015G20KT 26/20 A2988 RMK A01 T02600203  RH  071%=      5-min Rain = 0
KAHS 231428Z 17016KT 26/20 A2988 RMK A01 T02580201  RH  071%=      5-min Rain = 0
KAHS 231429Z 16011KT 26/20 A2988 RMK A01 T02570201  RH  071%=      5-min Rain = 0
KAHS 231430Z 16013G19KT 26/20 A2989 RMK A01 T02570202  RH  072%=      5-min Rain = 0
KAHS 231431Z 16014G19KT 26/20 A2989 RMK A01 T02560201  RH  072%=      5-min Rain = 0
KAHS 231432Z 17015G21KT 26/20 A2989 RMK A01 T02560200  RH  071%=      5-min Rain = 0
KAHS 231433Z 16012KT 26/20 A2989 RMK A01 T02570201  RH  071%=      5-min Rain = 0
KAHS 231434Z 16011KT 26/20 A2989 RMK A01 T02600203  RH  071%=      5-min Rain = 0
KAHS 231435Z 15010KT 26/21 A2989 RMK A01 T02620205  RH  071%=      5-min Rain = 0
KAHS 231436Z 16010KT 26/21 A2989 RMK A01 T02640205  RH  070%=      5-min Rain = 0
KAHS 231437Z 16015KT 26/20 A2989 RMK A01 T02640204  RH  069%=      5-min Rain = 0
KAHS 231438Z 16016G21KT 26/20 A2989 RMK A01 T02610201  RH  069%=      5-min Rain = 0
KAHS 231439Z 16012G17KT 26/20 A2989 RMK A01 T02600200  RH  070%=      5-min Rain = 0
KAHS 231440Z 16015G21KT 26/20 A2989 RMK A01 T02610202  RH  070%=      5-min Rain = 0
KAHS 231441Z 16015KT 26/20 A2989 RMK A01 T02610200  RH  069%=      5-min Rain = 0
KAHS 231442Z 16014KT 26/20 A2989 RMK A01 T02610201  RH  070%=      5-min Rain = 0
KAHS 231443Z 16014G19KT 26/20 A2988 RMK A01 T02610202  RH  070%=      5-min Rain = 0
KAHS 231444Z 17013KT 26/20 A2988 RMK A01 T02640202  RH  069%=      5-min Rain = 0
KAHS 231445Z 15013KT 27/20 A2988 RMK A01 T02660203  RH  068%=      5-min Rain = 0
KAHS 231446Z 16011KT 27/21 A2988 RMK A01 T02690205  RH  068%=      5-min Rain = 0
KAHS 231447Z 15014KT 27/20 A2988 RMK A01 T02690203  RH  067%=      5-min Rain = 0
KAHS 231448Z 16014KT 27/20 A2988 RMK A01 T02660201  RH  067%=      5-min Rain = 0
KAHS 231449Z 16013KT 26/20 A2988 RMK A01 T02640201  RH  068%=      5-min Rain = 0
KAHS 231450Z 16014KT 26/20 A2988 RMK A01 T02620200  RH  069%=      5-min Rain = 0
KAHS 231451Z 16012G17KT 26/20 A2988 RMK A01 T02630201  RH  069%=      5-min Rain = 0
KAHS 231452Z 17015G20KT 26/20 A2988 RMK A01 T02630200  RH  068%=      5-min Rain = 0
KAHS 231453Z 16014KT 26/20 A2988 RMK A01 T02630198  RH  068%=      5-min Rain = 0
KAHS 231454Z 17015KT 26/20 A2988 RMK A01 T02620198  RH  068%=      5-min Rain = 0
KAHS 231455Z 16016KT 26/20 A2988 RMK A01 T02620199  RH  068%=      5-min Rain = 0
KAHS 231456Z 16011KT 27/20 A2988 RMK A01 T02650203  RH  068%=      5-min Rain = 0
KAHS 231457Z 17018G25KT 27/20 A2988 RMK A01 T02690202  RH  067%=      5-min Rain = 0
KAHS 231458Z 17017KT 27/20 A2988 RMK A01 T02690199  RH  065%=      5-min Rain = 0
KAHS 231459Z 17019KT 27/20 A2988 RMK A01 T02680198  RH  066%=      5-min Rain = 0
KAHS 231500Z 17016KT 27/20 A2988 RMK A01 T02660197  RH  066%=      5-min Rain = 0
KAHS 231501Z 18015KT 27/20 A2988 RMK A01 T02670198  RH  066%=      5-min Rain = 0
KAHS 231502Z 16014KT 27/20 A2988 RMK A01 T02690200  RH  066%=      5-min Rain = 0
KAHS 231503Z 17015KT 27/20 A2988 RMK A01 T02710200  RH  065%=      5-min Rain = 0
KAHS 231504Z 17015G20KT 27/20 A2988 RMK A01 T02730202  RH  065%=      5-min Rain = 0
KAHS 231505Z 18016G21KT 27/20 A2988 RMK A01 T02710200  RH  065%=      5-min Rain = 0
KAHS 231506Z 17014KT 27/20 A2988 RMK A01 T02700202  RH  066%=      5-min Rain = 0
KAHS 231507Z 17015KT 27/20 A2988 RMK A01 T02720202  RH  066%=      5-min Rain = 0
KAHS 231508Z 17016G23KT 27/20 A2988 RMK A01 T02710201  RH  065%=      5-min Rain = 0
KAHS 231509Z 17018KT 27/20 A2988 RMK A01 T02690198  RH  065%=      5-min Rain = 0
KAHS 231510Z 17015KT 27/20 A2988 RMK A01 T02660198  RH  066%=      5-min Rain = 0
KAHS 231511Z 17014G20KT 27/20 A2988 RMK A01 T02650199  RH  067%=      5-min Rain = 0
KAHS 231512Z 17013G19KT 26/20 A2988 RMK A01 T02640199  RH  067%=      5-min Rain = 0
KAHS 231513Z 17010KT 26/20 A2988 RMK A01 T02640200  RH  068%=      5-min Rain = 0
KAHS 231514Z 18012KT 27/20 A2988 RMK A01 T02660202  RH  068%=      5-min Rain = 0
KAHS 231515Z 17015KT 27/20 A2988 RMK A01 T02680201  RH  067%=      5-min Rain = 0
KAHS 231516Z 16012G19KT 27/20 A2988 RMK A01 T02700201  RH  066%=      5-min Rain = 0
KAHS 231517Z 16018KT 27/20 A2988 RMK A01 T02700199  RH  065%=      5-min Rain = 0
KAHS 231518Z 16016KT 27/20 A2988 RMK A01 T02670198  RH  065%=      5-min Rain = 0
KAHS 231519Z 16012G18KT 27/20 A2988 RMK A01 T02670199  RH  066%=      5-min Rain = 0
KAHS 231520Z 16011KT 27/20 A2988 RMK A01 T02690200  RH  066%=      5-min Rain = 0
KAHS 231521Z 18014G21KT 27/20 A2988 RMK A01 T02700201  RH  066%=      5-min Rain = 0
KAHS 231522Z 18019KT 27/20 A2988 RMK A01 T02700198  RH  065%=      5-min Rain = 0
KAHS 231523Z 17018KT 27/20 A2988 RMK A01 T02670195  RH  065%=      5-min Rain = 0
KAHS 231524Z 17016KT 27/20 A2988 RMK A01 T02660196  RH  065%=      5-min Rain = 0
KAHS 231525Z 18013KT 27/20 A2988 RMK A01 T02660198  RH  066%=      5-min Rain = 0
KAHS 231526Z 18015G21KT 27/20 A2988 RMK A01 T02650198  RH  066%=      5-min Rain = 0
KAHS 231527Z 17016G21KT 26/20 A2988 RMK A01 T02640196  RH  066%=      5-min Rain = 0
KAHS 231528Z 16014KT 26/20 A2988 RMK A01 T02630198  RH  067%=      5-min Rain = 0
KAHS 231529Z 17013KT 26/20 A2988 RMK A01 T02640199  RH  067%=      5-min Rain = 0
KAHS 231530Z 17015KT 27/20 A2988 RMK A01 T02670201  RH  067%=      5-min Rain = 0
KAHS 231531Z 17018KT 27/20 A2988 RMK A01 T02680198  RH  066%=      5-min Rain = 0
KAHS 231532Z 16011KT 27/20 A2988 RMK A01 T02660198  RH  066%=      5-min Rain = 0
KAHS 231533Z 16014G24KT 27/20 A2988 RMK A01 T02690201  RH  066%=      5-min Rain = 0
KAHS 231534Z 16018KT 27/20 A2988 RMK A01 T02700199  RH  065%=      5-min Rain = 0
KAHS 231535Z 16017KT 27/20 A2988 RMK A01 T02710199  RH  065%=      5-min Rain = 0
KAHS 231536Z 16014G19KT 27/20 A2988 RMK A01 T02710200  RH  065%=      5-min Rain = 0
KAHS 231537Z 16015KT 27/20 A2988 RMK A01 T02710200  RH  065%=      5-min Rain = 0
KAHS 231538Z 17015G20KT 27/20 A2988 RMK A01 T02710200  RH  065%=      5-min Rain = 0
KAHS 231539Z 17012G17KT 27/20 A2988 RMK A01 T02700200  RH  065%=      5-min Rain = 0
KAHS 231540Z 18016KT 27/20 A2988 RMK A01 T02680198  RH  065%=      5-min Rain = 0
KAHS 231541Z 17013KT 27/20 A2988 RMK A01 T02660197  RH  066%=      5-min Rain = 0
KAHS 231542Z 16014G20KT 27/20 A2988 RMK A01 T02650198  RH  066%=      5-min Rain = 0
KAHS 231543Z 18018KT 27/20 A2988 RMK A01 T02650196  RH  066%=      5-min Rain = 0
KAHS 231544Z 17015KT 27/20 A2988 RMK A01 T02650197  RH  066%=      5-min Rain = 0
KAHS 231545Z 17012KT 27/20 A2988 RMK A01 T02690200  RH  066%=      5-min Rain = 0
KAHS 231546Z 16010KT 27/20 A2988 RMK A01 T02730201  RH  065%=      5-min Rain = 0
KAHS 231547Z 16017G22KT 27/20 A2988 RMK A01 T02740199  RH  064%=      5-min Rain = 0
KAHS 231548Z 16015KT 27/20 A2988 RMK A01 T02730197  RH  063%=      5-min Rain = 0
KAHS 231549Z 16016KT 27/20 A2988 RMK A01 T02720197  RH  064%=      5-min Rain = 0
KAHS 231550Z 17017KT 27/20 A2988 RMK A01 T02700196  RH  064%=      5-min Rain = 0
KAHS 231551Z 17012KT 27/20 A2988 RMK A01 T02700198  RH  065%=      5-min Rain = 0
KAHS 231552Z 16013G20KT 27/20 A2988 RMK A01 T02700198  RH  065%=      5-min Rain = 0
KAHS 231553Z 16013G19KT 27/20 A2988 RMK A01 T02710198  RH  065%=      5-min Rain = 0
KAHS 231554Z 17014G19KT 27/20 A2988 RMK A01 T02730201  RH  065%=      5-min Rain = 0
KAHS 231555Z 17016KT 28/20 A2988 RMK A01 T02780201  RH  063%=      5-min Rain = 0
KAHS 231556Z 18013KT 28/20 A2988 RMK A01 T02810202  RH  062%=      5-min Rain = 0
KAHS 231557Z 17014KT 28/20 A2988 RMK A01 T02840203  RH  062%=      5-min Rain = 0
KAHS 231558Z 16017KT 29/20 A2988 RMK A01 T02850202  RH  061%=      5-min Rain = 0
KAHS 231559Z 16015KT 28/20 A2988 RMK A01 T02830199  RH  061%=      5-min Rain = 0
KAHS 231600Z 16018G25KT 28/20 A2988 RMK A01 T02800199  RH  062%=      5-min Rain = 0
KAHS 231601Z 18018KT 28/20 A2988 RMK A01 T02770199  RH  062%=      5-min Rain = 0
KAHS 231602Z 18016KT 28/20 A2988 RMK A01 T02760199  RH  063%=      5-min Rain = 0
KAHS 231603Z 17016KT 28/20 A2988 RMK A01 T02750198  RH  063%=      5-min Rain = 0
KAHS 231604Z 16015G20KT 27/20 A2988 RMK A01 T02730196  RH  063%=      5-min Rain = 0
KAHS 231605Z 18014G19KT 27/20 A2988 RMK A01 T02720197  RH  063%=      5-min Rain = 0
KAHS 231606Z 16013KT 27/20 A2988 RMK A01 T02720198  RH  064%=      5-min Rain = 0
KAHS 231607Z 17014KT 27/20 A2988 RMK A01 T02720198  RH  064%=      5-min Rain = 0
KAHS 231608Z 16016G23KT 27/20 A2988 RMK A01 T02720199  RH  064%=      5-min Rain = 0
KAHS 231609Z 16015KT 27/20 A2988 RMK A01 T02720197  RH  063%=      5-min Rain = 0
KAHS 231610Z 16010KT 27/20 A2988 RMK A01 T02740199  RH  064%=      5-min Rain = 0
KAHS 231611Z 17011KT 28/20 A2988 RMK A01 T02790204  RH  064%=      5-min Rain = 0
KAHS 231612Z 16011G17KT 28/20 A2988 RMK A01 T02830202  RH  062%=      5-min Rain = 0
KAHS 231613Z 17014KT 28/20 A2987 RMK A01 T02840202  RH  061%=      5-min Rain = 0
KAHS 231614Z 15014G19KT 29/20 A2987 RMK A01 T02870203  RH  060%=      5-min Rain = 0
KAHS 231615Z 15018KT 29/20 A2987 RMK A01 T02880202  RH  060%=      5-min Rain = 0
KAHS 231616Z 15018G23KT 29/20 A2987 RMK A01 T02870200  RH  060%=      5-min Rain = 0
KAHS 231617Z 15016KT 29/20 A2987 RMK A01 T02870201  RH  059%=      5-min Rain = 0
KAHS 231618Z 16015KT 29/20 A2987 RMK A01 T02890200  RH  059%=      5-min Rain = 0
KAHS 231619Z 15013KT 29/20 A2987 RMK A01 T02890200  RH  059%=      5-min Rain = 0
KAHS 231620Z 15015KT 29/20 A2987 RMK A01 T02870200  RH  059%=      5-min Rain = 0
KAHS 231621Z 15013KT 29/20 A2987 RMK A01 T02870200  RH  060%=      5-min Rain = 0
KAHS 231622Z 15015G23KT 29/20 A2987 RMK A01 T02880202  RH  060%=      5-min Rain = 0
KAHS 231623Z 16014KT 29/20 A2987 RMK A01 T02880200  RH  059%=      5-min Rain = 0
KAHS 231624Z 15016KT 29/20 A2987 RMK A01 T02870199  RH  059%=      5-min Rain = 0
KAHS 231625Z 15015G20KT 29/20 A2987 RMK A01 T02850198  RH  060%=      5-min Rain = 0
KAHS 231626Z 15014KT 28/20 A2987 RMK A01 T02830199  RH  060%=      5-min Rain = 0
KAHS 231627Z 14012KT 28/20 A2987 RMK A01 T02830199  RH  061%=      5-min Rain = 0
KAHS 231628Z 15009G14KT 28/20 A2988 RMK A01 T02810200  RH  061%=      5-min Rain = 0
KAHS 231629Z 15011KT 28/20 A2988 RMK A01 T02800200  RH  062%=      5-min Rain = 0
KAHS 231630Z 16011KT 28/20 A2988 RMK A01 T02800201  RH  062%=      5-min Rain = 0
KAHS 231631Z 16012G21KT 28/20 A2988 RMK A01 T02790201  RH  063%=      5-min Rain = 0
KAHS 231632Z 17013G18KT 28/20 A2988 RMK A01 T02770198  RH  062%=      5-min Rain = 0
KAHS 231633Z 17016KT 28/20 A2988 RMK A01 T02770198  RH  062%=      5-min Rain = 0
KAHS 231634Z 17014KT 28/20 A2988 RMK A01 T02760198  RH  062%=      5-min Rain = 0
KAHS 231635Z 17016KT 28/20 A2988 RMK A01 T02750198  RH  063%=      5-min Rain = 0
KAHS 231636Z 17017KT 28/20 A2988 RMK A01 T02750198  RH  063%=      5-min Rain = 0
KAHS 231637Z 17015KT 28/20 A2988 RMK A01 T02750196  RH  062%=      5-min Rain = 0
KAHS 231638Z 17017KT 27/20 A2988 RMK A01 T02740195  RH  062%=      5-min Rain = 0
KAHS 231639Z 17013KT 27/20 A2988 RMK A01 T02730195  RH  062%=      5-min Rain = 0
KAHS 231640Z 17015KT 27/20 A2988 RMK A01 T02730195  RH  062%=      5-min Rain = 0
KAHS 231641Z 16011KT 27/20 A2988 RMK A01 T02740196  RH  062%=      5-min Rain = 0
KAHS 231642Z 16010KT 28/20 A2987 RMK A01 T02770199  RH  062%=      5-min Rain = 0
KAHS 231643Z 17014KT 28/20 A2987 RMK A01 T02770197  RH  062%=      5-min Rain = 0
KAHS 231644Z 17015KT 28/20 A2987 RMK A01 T02760197  RH  062%=      5-min Rain = 0
KAHS 231645Z 17015KT 28/20 A2987 RMK A01 T02770198  RH  062%=      5-min Rain = 0
KAHS 231646Z 15012G17KT 28/20 A2987 RMK A01 T02780198  RH  062%=      5-min Rain = 0
KAHS 231647Z 16013KT 28/20 A2987 RMK A01 T02800200  RH  062%=      5-min Rain = 0
KAHS 231648Z 15012G17KT 28/20 A2987 RMK A01 T02840201  RH  061%=      5-min Rain = 0
KAHS 231649Z 15016KT 29/20 A2987 RMK A01 T02860201  RH  060%=      5-min Rain = 0
KAHS 231650Z 15014KT 29/20 A2987 RMK A01 T02870200  RH  059%=      5-min Rain = 0
KAHS 231651Z 15016G21KT 29/20 A2987 RMK A01 T02890202  RH  059%=      5-min Rain = 0
KAHS 231652Z 15015KT 29/20 A2987 RMK A01 T02920203  RH  059%=      5-min Rain = 0
KAHS 231653Z 17014G20KT 30/20 A2987 RMK A01 T02950203  RH  058%=      5-min Rain = 0
KAHS 231654Z 16017KT 29/20 A2987 RMK A01 T02940201  RH  057%=      5-min Rain = 0
KAHS 231655Z 16016G21KT 29/20 A2987 RMK A01 T02940201  RH  057%=      5-min Rain = 0
KAHS 231656Z 17015KT 30/20 A2987 RMK A01 T02960203  RH  057%=      5-min Rain = 0
KAHS 231657Z 16013KT 30/20 A2987 RMK A01 T02970203  RH  057%=      5-min Rain = 0
KAHS 231658Z 16016G22KT 30/20 A2987 RMK A01 T02990203  RH  056%=      5-min Rain = 0
KAHS 231659Z 16013G18KT 30/20 A2987 RMK A01 T02980201  RH  056%=      5-min Rain = 0
KAHS 231700Z 16015KT 30/20 A2987 RMK A01 T02980202  RH  056%=      5-min Rain = 0
KAHS 231701Z 17015G20KT 30/20 A2987 RMK A01 T02980200  RH  056%=      5-min Rain = 0
KAHS 231702Z 16015KT 30/20 A2987 RMK A01 T02960198  RH  056%=      5-min Rain = 0
KAHS 231703Z 15015KT 30/20 A2987 RMK A01 T02970200  RH  056%=      5-min Rain = 0
KAHS 231704Z 16016G21KT 30/20 A2987 RMK A01 T02980200  RH  056%=      5-min Rain = 0
KAHS 231705Z 18016KT 30/20 A2987 RMK A01 T02970199  RH  056%=      5-min Rain = 0
KAHS 231706Z 18015KT 30/20 A2987 RMK A01 T02960199  RH  056%=      5-min Rain = 0
KAHS 231707Z 18018KT 30/20 A2987 RMK A01 T02960200  RH  056%=      5-min Rain = 0
KAHS 231708Z 18015KT 30/20 A2987 RMK A01 T02970202  RH  056%=      5-min Rain = 0
KAHS 231709Z 17017G22KT 30/20 A2987 RMK A01 T02960199  RH  056%=      5-min Rain = 0
KAHS 231710Z 17015KT 29/20 A2987 RMK A01 T02920199  RH  057%=      5-min Rain = 0
KAHS 231711Z 17016KT 29/20 A2987 RMK A01 T02940200  RH  057%=      5-min Rain = 0
KAHS 231712Z 17016KT 30/20 A2987 RMK A01 T02950197  RH  056%=      5-min Rain = 0
KAHS 231713Z 17016G21KT 30/20 A2987 RMK A01 T02950199  RH  056%=      5-min Rain = 0
KAHS 231714Z 17016KT 30/20 A2987 RMK A01 T02960199  RH  056%=      5-min Rain = 0
KAHS 231715Z 17015G20KT 30/20 A2987 RMK A01 T02960197  RH  055%=      5-min Rain = 0
KAHS 231716Z 17016KT 30/20 A2987 RMK A01 T02950198  RH  056%=      5-min Rain = 0
KAHS 231717Z 17015KT 29/20 A2987 RMK A01 T02920198  RH  057%=      5-min Rain = 0
KAHS 231718Z 18017KT 29/20 A2987 RMK A01 T02930200  RH  057%=      5-min Rain = 0
KAHS 231719Z 16013G18KT 30/20 A2987 RMK A01 T02950198  RH  056%=      5-min Rain = 0
KAHS 231720Z 17012KT 30/20 A2987 RMK A01 T02970201  RH  056%=      5-min Rain = 0
KAHS 231721Z 17013KT 30/20 A2986 RMK A01 T03000202  RH  056%=      5-min Rain = 0
KAHS 231722Z 17013KT 30/20 A2986 RMK A01 T03000203  RH  056%=      5-min Rain = 0
KAHS 231723Z 17015G22KT 30/20 A2986 RMK A01 T03010203  RH  056%=      5-min Rain = 0
KAHS 231724Z 16014KT 30/20 A2986 RMK A01 T03000200  RH  055%=      5-min Rain = 0
KAHS 231725Z 16015KT 30/20 A2986 RMK A01 T02950198  RH  056%=      5-min Rain = 0
KAHS 231726Z 16013KT 30/20 A2986 RMK A01 T02950200  RH  057%=      5-min Rain = 0
KAHS 231727Z 17012G17KT 30/20 A2986 RMK A01 T02970200  RH  056%=      5-min Rain = 0
KAHS 231728Z 18012KT 30/20 A2986 RMK A01 T02970198  RH  055%=      5-min Rain = 0
KAHS 231729Z 18014KT 30/20 A2986 RMK A01 T02980200  RH  055%=      5-min Rain = 0
KAHS 231730Z 16013KT 30/20 A2986 RMK A01 T02990200  RH  055%=      5-min Rain = 0
KAHS 231731Z 17014KT 30/20 A2986 RMK A01 T03030202  RH  055%=      5-min Rain = 0
KAHS 231732Z 17014KT 30/20 A2986 RMK A01 T03040198  RH  053%=      5-min Rain = 0
KAHS 231733Z 17017KT 30/20 A2986 RMK A01 T03020198  RH  054%=      5-min Rain = 0
KAHS 231734Z 17013KT 30/20 A2986 RMK A01 T02990197  RH  054%=      5-min Rain = 0
KAHS 231735Z 19014KT 30/20 A2986 RMK A01 T02970196  RH  055%=      5-min Rain = 0
KAHS 231736Z 18015KT 30/20 A2986 RMK A01 T02970197  RH  055%=      5-min Rain = 0
KAHS 231737Z 17018KT 30/20 A2986 RMK A01 T02990196  RH  054%=      5-min Rain = 0
KAHS 231738Z 18016KT 30/20 A2986 RMK A01 T03000196  RH  054%=      5-min Rain = 0
KAHS 231739Z 18014G19KT 30/20 A2986 RMK A01 T03010197  RH  054%=      5-min Rain = 0
KAHS 231740Z 17011KT 30/20 A2986 RMK A01 T03000197  RH  054%=      5-min Rain = 0
KAHS 231741Z 17013KT 30/20 A2986 RMK A01 T02980195  RH  054%=      5-min Rain = 0
KAHS 231742Z 16012KT 30/20 A2986 RMK A01 T02980198  RH  055%=      5-min Rain = 0
KAHS 231743Z 16013KT 30/20 A2986 RMK A01 T02970196  RH  055%=      5-min Rain = 0
KAHS 231744Z 17012G17KT 30/20 A2986 RMK A01 T02950197  RH  056%=      5-min Rain = 0
KAHS 231745Z 16010KT 30/20 A2986 RMK A01 T02970201  RH  056%=      5-min Rain = 0
KAHS 231746Z 17012KT 30/20 A2986 RMK A01 T03020202  RH  055%=      5-min Rain = 0
KAHS 231747Z 17016G23KT 31/20 A2986 RMK A01 T03050200  RH  053%=      5-min Rain = 0
KAHS 231748Z 18017KT 31/20 A2986 RMK A01 T03060198  RH  053%=      5-min Rain = 0
KAHS 231749Z 17018KT 31/19 A2986 RMK A01 T03060194  RH  051%=      5-min Rain = 0
KAHS 231750Z 18014KT 30/19 A2986 RMK A01 T03040193  RH  052%=      5-min Rain = 0
KAHS 231751Z 17014KT 30/20 A2986 RMK A01 T03040195  RH  052%=      5-min Rain = 0
KAHS 231752Z 17015KT 30/20 A2986 RMK A01 T03040197  RH  053%=      5-min Rain = 0
KAHS 231753Z 17015KT 30/20 A2986 RMK A01 T03030197  RH  053%=      5-min Rain = 0
KAHS 231754Z 17015KT 30/20 A2986 RMK A01 T03030197  RH  053%=      5-min Rain = 0
KAHS 231755Z 17017KT 30/20 A2986 RMK A01 T03010196  RH  053%=      5-min Rain = 0
KAHS 231756Z 18015G20KT 30/19 A2985 RMK A01 T03020194  RH  053%=      5-min Rain = 0
KAHS 231757Z 18016G22KT 30/20 A2985 RMK A01 T03030196  RH  053%=      5-min Rain = 0
KAHS 231758Z 18013G18KT 30/20 A2985 RMK A01 T03020196  RH  053%=      5-min Rain = 0
KAHS 231759Z 16015G22KT 31/20 A2985 RMK A01 T03050199  RH  053%=      5-min Rain = 0
KAHS 231800Z 16017G22KT 30/19 A2985 RMK A01 T03040194  RH  052%=      5-min Rain = 0
KAHS 231801Z 15015KT 31/20 A2985 RMK A01 T03050195  RH  052%=      5-min Rain = 0
KAHS 231802Z 16013KT 31/20 A2985 RMK A01 T03060195  RH  052%=      5-min Rain = 0
KAHS 231803Z 16015KT 31/20 A2985 RMK A01 T03070197  RH  052%=      5-min Rain = 0
KAHS 231804Z 18015KT 31/20 A2985 RMK A01 T03100197  RH  051%=      5-min Rain = 0
KAHS 231805Z 19011G16KT 31/20 A2985 RMK A01 T03100199  RH  052%=      5-min Rain = 0
KAHS 231806Z 18015KT 31/20 A2985 RMK A01 T03090198  RH  051%=      5-min Rain = 0
KAHS 231807Z 16015KT 31/20 A2985 RMK A01 T03050196  RH  052%=      5-min Rain = 0
KAHS 231808Z 16013G18KT 31/20 A2985 RMK A01 T03050199  RH  053%=      5-min Rain = 0
KAHS 231809Z 16014G19KT 31/20 A2985 RMK A01 T03060195  RH  051%=      5-min Rain = 0
KAHS 231810Z 16016KT 30/20 A2985 RMK A01 T03040195  RH  052%=      5-min Rain = 0
KAHS 231811Z 16015KT 30/19 A2985 RMK A01 T03010193  RH  052%=      5-min Rain = 0
KAHS 231812Z 16012KT 30/20 A2985 RMK A01 T03000195  RH  053%=      5-min Rain = 0
KAHS 231813Z 16012KT 30/20 A2985 RMK A01 T03040199  RH  053%=      5-min Rain = 0
KAHS 231814Z 16013G19KT 31/20 A2985 RMK A01 T03070196  RH  052%=      5-min Rain = 0
KAHS 231815Z 16014KT 30/19 A2985 RMK A01 T03030193  RH  052%=      5-min Rain = 0
KAHS 231816Z 17014KT 30/19 A2985 RMK A01 T02990193  RH  053%=      5-min Rain = 0
KAHS 231817Z 16015G21KT 30/19 A2985 RMK A01 T02970194  RH  054%=      5-min Rain = 0
KAHS 231818Z 17015KT 30/19 A2985 RMK A01 T02970194  RH  054%=      5-min Rain = 0
KAHS 231819Z 18015KT 30/20 A2985 RMK A01 T02980196  RH  054%=      5-min Rain = 0
KAHS 231820Z 20013KT 30/20 A2985 RMK A01 T03020198  RH  054%=      5-min Rain = 0
KAHS 231821Z 18017G22KT 30/20 A2985 RMK A01 T03040196  RH  052%=      5-min Rain = 0
KAHS 231822Z 16015G21KT 31/20 A2985 RMK A01 T03050195  RH  052%=      5-min Rain = 0
KAHS 231823Z 16017KT 31/20 A2984 RMK A01 T03080195  RH  051%=      5-min Rain = 0
KAHS 231824Z 17014G21KT 30/19 A2984 RMK A01 T03040194  RH  052%=      5-min Rain = 0
KAHS 231825Z 17014KT 30/20 A2984 RMK A01 T03030195  RH  053%=      5-min Rain = 0
KAHS 231826Z 19011G16KT 30/19 A2984 RMK A01 T03020194  RH  052%=      5-min Rain = 0
KAHS 231827Z 19012KT 30/20 A2984 RMK A01 T03020196  RH  053%=      5-min Rain = 0
KAHS 231828Z 16013KT 30/20 A2984 RMK A01 T03010196  RH  053%=      5-min Rain = 0
KAHS 231829Z 16014KT 30/20 A2984 RMK A01 T03000198  RH  054%=      5-min Rain = 0
KAHS 231830Z 18016KT 30/20 A2984 RMK A01 T03030199  RH  054%=      5-min Rain = 0
KAHS 231831Z 18018KT 31/20 A2984 RMK A01 T03050195  RH  052%=      5-min Rain = 0
KAHS 231832Z 18016KT 30/19 A2984 RMK A01 T03040193  RH  051%=      5-min Rain = 0
KAHS 231833Z 16013KT 30/19 A2984 RMK A01 T03030194  RH  052%=      5-min Rain = 0
KAHS 231834Z 17012KT 30/19 A2984 RMK A01 T03040194  RH  052%=      5-min Rain = 0
KAHS 231835Z 17010KT 31/20 A2984 RMK A01 T03070198  RH  052%=      5-min Rain = 0
KAHS 231836Z 19010G16KT 31/20 A2984 RMK A01 T03090197  RH  051%=      5-min Rain = 0
KAHS 231837Z 17013KT 31/20 A2984 RMK A01 T03110200  RH  052%=      5-min Rain = 0
KAHS 231838Z 18014KT 32/20 A2984 RMK A01 T03150201  RH  051%=      5-min Rain = 0
KAHS 231839Z 18017KT 31/20 A2983 RMK A01 T03140198  RH  050%=      5-min Rain = 0
KAHS 231840Z 18013KT 31/20 A2983 RMK A01 T03120199  RH  051%=      5-min Rain = 0
KAHS 231841Z 16012KT 31/20 A2983 RMK A01 T03140202  RH  052%=      5-min Rain = 0
KAHS 231842Z 17013KT 32/20 A2983 RMK A01 T03160200  RH  050%=      5-min Rain = 0
KAHS 231843Z 17013KT 32/20 A2983 RMK A01 T03160201  RH  051%=      5-min Rain = 0
KAHS 231844Z 15014G19KT 32/20 A2983 RMK A01 T03160199  RH  050%=      5-min Rain = 0
KAHS 231845Z 15012KT 31/20 A2983 RMK A01 T03120198  RH  051%=      5-min Rain = 0
KAHS 231846Z 15016KT 31/20 A2983 RMK A01 T03130200  RH  051%=      5-min Rain = 0
KAHS 231847Z 16014G19KT 31/20 A2983 RMK A01 T03130199  RH  051%=      5-min Rain = 0
KAHS 231848Z 17018KT 31/20 A2983 RMK A01 T03140198  RH  050%=      5-min Rain = 0
KAHS 231849Z 16015KT 31/20 A2983 RMK A01 T03120197  RH  050%=      5-min Rain = 0
KAHS 231850Z 16017KT 32/20 A2983 RMK A01 T03150199  RH  050%=      5-min Rain = 0
KAHS 231851Z 17018G23KT 31/20 A2983 RMK A01 T03120196  RH  050%=      5-min Rain = 0
KAHS 231852Z 17017KT 31/20 A2983 RMK A01 T03110196  RH  051%=      5-min Rain = 0
KAHS 231853Z 17014KT 31/20 A2983 RMK A01 T03100196  RH  051%=      5-min Rain = 0
KAHS 231854Z 18018KT 31/19 A2983 RMK A01 T03100192  RH  049%=      5-min Rain = 0
KAHS 231855Z 17015KT 31/19 A2982 RMK A01 T03060189  RH  050%=      5-min Rain = 0
KAHS 231856Z 17014KT 30/19 A2983 RMK A01 T03030191  RH  051%=      5-min Rain = 0
KAHS 231857Z 18017KT 30/19 A2982 RMK A01 T03040192  RH  051%=      5-min Rain = 0
KAHS 231858Z 18015G20KT 31/20 A2982 RMK A01 T03080195  RH  051%=      5-min Rain = 0
KAHS 231859Z 18017G23KT 31/19 A2982 RMK A01 T03090193  RH  050%=      5-min Rain = 0
KAHS 231900Z 17018G26KT 31/20 A2982 RMK A01 T03100196  RH  051%=      5-min Rain = 0
KAHS 231901Z 17022G27KT 31/19 A2982 RMK A01 T03090193  RH  050%=      5-min Rain = 0
KAHS 231902Z 16019KT 31/19 A2982 RMK A01 T03060192  RH  051%=      5-min Rain = 0
KAHS 231903Z 17015G20KT 30/19 A2982 RMK A01 T03020192  RH  052%=      5-min Rain = 0
KAHS 231904Z 17014G19KT 31/20 A2982 RMK A01 T03050196  RH  052%=      5-min Rain = 0
KAHS 231905Z 18015KT 31/20 A2982 RMK A01 T03110197  RH  051%=      5-min Rain = 0
KAHS 231906Z 18016KT 31/19 A2982 RMK A01 T03110194  RH  050%=      5-min Rain = 0
KAHS 231907Z 18017G22KT 31/19 A2982 RMK A01 T03110193  RH  049%=      5-min Rain = 0
KAHS 231908Z 17012KT 31/19 A2982 RMK A01 T03110194  RH  050%=      5-min Rain = 0
KAHS 231909Z 17016KT 31/20 A2982 RMK A01 T03140195  RH  049%=      5-min Rain = 0
KAHS 231910Z 17016KT 31/19 A2982 RMK A01 T03130191  RH  048%=      5-min Rain = 0
KAHS 231911Z 16012G17KT 31/19 A2981 RMK A01 T03110191  RH  049%=      5-min Rain = 0
KAHS 231912Z 16013G18KT 31/19 A2981 RMK A01 T03140194  RH  049%=      5-min Rain = 0
KAHS 231913Z 16016G23KT 32/19 A2981 RMK A01 T03150192  RH  048%=      5-min Rain = 0
KAHS 231914Z 17016G21KT 32/19 A2981 RMK A01 T03160194  RH  048%=      5-min Rain = 0
KAHS 231915Z 17019G25KT 31/19 A2981 RMK A01 T03140191  RH  048%=      5-min Rain = 0
KAHS 231916Z 17015KT 31/19 A2982 RMK A01 T03140194  RH  049%=      5-min Rain = 0
KAHS 231917Z 17013KT 31/19 A2982 RMK A01 T03140192  RH  048%=      5-min Rain = 0
KAHS 231918Z 17013KT 32/19 A2982 RMK A01 T03150193  RH  048%=      5-min Rain = 0
KAHS 231919Z 17018G26KT 31/20 A2982 RMK A01 T03140195  RH  049%=      5-min Rain = 0
KAHS 231920Z 17019G24KT 31/20 A2982 RMK A01 T03100195  RH  050%=      5-min Rain = 0
KAHS 231921Z 17020KT 31/20 A2982 RMK A01 T03090196  RH  051%=      5-min Rain = 0
KAHS 231922Z 17020KT 31/19 A2982 RMK A01 T03090194  RH  050%=      5-min Rain = 0
KAHS 231923Z 17017KT 31/19 A2982 RMK A01 T03070193  RH  051%=      5-min Rain = 0
KAHS 231924Z 17015G20KT 31/19 A2981 RMK A01 T03060193  RH  051%=      5-min Rain = 0
KAHS 231925Z 16018KT 31/19 A2981 RMK A01 T03070194  RH  051%=      5-min Rain = 0
KAHS 231926Z 16016G21KT 31/20 A2981 RMK A01 T03090196  RH  051%=      5-min Rain = 0
KAHS 231927Z 16015KT 31/20 A2981 RMK A01 T03110198  RH  051%=      5-min Rain = 0
KAHS 231928Z 17017G24KT 31/20 A2981 RMK A01 T03110195  RH  050%=      5-min Rain = 0
KAHS 231929Z 18017G23KT 31/19 A2981 RMK A01 T03070194  RH  051%=      5-min Rain = 0
KAHS 231930Z 17017G22KT 31/19 A2981 RMK A01 T03060194  RH  051%=      5-min Rain = 0
KAHS 231931Z 19017KT 31/20 A2981 RMK A01 T03090195  RH  051%=      5-min Rain = 0
KAHS 231932Z 19017KT 31/19 A2981 RMK A01 T03080190  RH  049%=      5-min Rain = 0
KAHS 231933Z 19014KT 31/19 A2981 RMK A01 T03100193  RH  050%=      5-min Rain = 0
KAHS 231934Z 17014G21KT 31/19 A2981 RMK A01 T03130192  RH  049%=      5-min Rain = 0
KAHS 231935Z 18014KT 31/19 A2981 RMK A01 T03140191  RH  048%=      5-min Rain = 0
KAHS 231936Z 19015KT 31/19 A2981 RMK A01 T03140191  RH  048%=      5-min Rain = 0
KAHS 231937Z 20016KT 31/19 A2981 RMK A01 T03140192  RH  048%=      5-min Rain = 0
KAHS 231938Z 18013G18KT 31/19 A2981 RMK A01 T03140193  RH  048%=      5-min Rain = 0
KAHS 231939Z 16014KT 32/19 A2981 RMK A01 T03160194  RH  049%=      5-min Rain = 0
KAHS 231940Z 17016KT 31/19 A2981 RMK A01 T03140192  RH  049%=      5-min Rain = 0
KAHS 231941Z 18012KT 31/19 A2981 RMK A01 T03080191  RH  050%=      5-min Rain = 0
KAHS 231942Z 18012G17KT 31/19 A2981 RMK A01 T03050191  RH  051%=      5-min Rain = 0
KAHS 231943Z 18017G23KT 30/19 A2981 RMK A01 T03020191  RH  051%=      5-min Rain = 0
KAHS 231944Z 18017KT 30/19 A2981 RMK A01 T03000189  RH  052%=      5-min Rain = 0
KAHS 231945Z 18015KT 30/19 A2981 RMK A01 T02980188  RH  052%=      5-min Rain = 0
KAHS 231946Z 19014G19KT 30/19 A2981 RMK A01 T02970189  RH  052%=      5-min Rain = 0
KAHS 231947Z 19015KT 30/19 A2981 RMK A01 T02970188  RH  052%=      5-min Rain = 0
KAHS 231948Z 18015KT 30/19 A298 RMK A01 T02960187  RH  052%=      5-min Rain = 0
KAHS 231949Z 18012KT 30/19 A298 RMK A01 T02950187  RH  052%=      5-min Rain = 0
KAHS 231950Z 19014KT 30/19 A2981 RMK A01 T02960188  RH  052%=      5-min Rain = 0
KAHS 231951Z 18015KT 30/19 A2981 RMK A01 T02950189  RH  053%=      5-min Rain = 0
KAHS 231952Z 18012KT 30/19 A2981 RMK A01 T02960191  RH  053%=      5-min Rain = 0
KAHS 231953Z 18016G21KT 30/19 A2981 RMK A01 T02970190  RH  053%=      5-min Rain = 0
KAHS 231954Z 18015KT 30/19 A2981 RMK A01 T02960188  RH  052%=      5-min Rain = 0
KAHS 231955Z 18013KT 30/19 A2981 RMK A01 T02960189  RH  052%=      5-min Rain = 0
KAHS 231956Z 19010KT 30/19 A2981 RMK A01 T02970190  RH  052%=      5-min Rain = 0
KAHS 231957Z 19012KT 30/19 A2981 RMK A01 T02990190  RH  052%=      5-min Rain = 0
KAHS 231958Z 18012KT 30/19 A2981 RMK A01 T02990191  RH  052%=      5-min Rain = 0
KAHS 231959Z 17015KT 30/19 A2981 RMK A01 T03000192  RH  052%=      5-min Rain = 0
KAHS 232000Z 17016G22KT 30/19 A298 RMK A01 T03010191  RH  052%=      5-min Rain = 0
KAHS 232001Z 16017G22KT 30/19 A298 RMK A01 T03020191  RH  051%=      5-min Rain = 0
KAHS 232002Z 17015KT 31/19 A298 RMK A01 T03060192  RH  051%=      5-min Rain = 0
KAHS 232003Z 16013KT 31/20 A298 RMK A01 T03120195  RH  050%=      5-min Rain = 0
KAHS 232004Z 17014G20KT 32/19 A298 RMK A01 T03150194  RH  049%=      5-min Rain = 0
KAHS 232005Z 17017G23KT 31/19 A298 RMK A01 T03130194  RH  049%=      5-min Rain = 0
KAHS 232006Z 17019KT 31/19 A298 RMK A01 T03120194  RH  049%=      5-min Rain = 0
KAHS 232007Z 16015G20KT 31/19 A298 RMK A01 T03120193  RH  049%=      5-min Rain = 0
KAHS 232008Z 16014KT 31/20 A298 RMK A01 T03140196  RH  049%=      5-min Rain = 0
KAHS 232009Z 16012G18KT 32/19 A298 RMK A01 T03170194  RH  048%=      5-min Rain = 0
KAHS 232010Z 18012G19KT 32/20 A298 RMK A01 T03200198  RH  049%=      5-min Rain = 0
KAHS 232011Z 17015G20KT 32/20 A298 RMK A01 T03230198  RH  048%=      5-min Rain = 0
KAHS 232012Z 17015KT 32/19 A298 RMK A01 T03230194  RH  046%=      5-min Rain = 0
KAHS 232013Z 17014KT 32/19 A298 RMK A01 T03230194  RH  046%=      5-min Rain = 0
KAHS 232014Z 16013G18KT 32/19 A298 RMK A01 T03230193  RH  046%=      5-min Rain = 0
KAHS 232015Z 17013KT 32/19 A298 RMK A01 T03220194  RH  047%=      5-min Rain = 0
KAHS 232016Z 17013KT 32/19 A2979 RMK A01 T03200194  RH  047%=      5-min Rain = 0
KAHS 232017Z 16013KT 32/19 A2979 RMK A01 T03200194  RH  047%=      5-min Rain = 0
KAHS 232018Z 15013G19KT 32/20 A2979 RMK A01 T03200196  RH  048%=      5-min Rain = 0
KAHS 232019Z 15017KT 32/20 A2979 RMK A01 T03210195  RH  047%=      5-min Rain = 0
KAHS 232020Z 16014G21KT 32/19 A2979 RMK A01 T03190193  RH  047%=      5-min Rain = 0
KAHS 232021Z 16013KT 32/19 A2979 RMK A01 T03200193  RH  047%=      5-min Rain = 0
KAHS 232022Z 16013KT 32/19 A2979 RMK A01 T03200194  RH  047%=      5-min Rain = 0
KAHS 232023Z 17013KT 32/20 A2979 RMK A01 T03240195  RH  047%=      5-min Rain = 0
KAHS 232024Z 17010KT 33/20 A2979 RMK A01 T03250195  RH  046%=      5-min Rain = 0
KAHS 232025Z 16011G17KT 33/20 A2979 RMK A01 T03270197  RH  046%=      5-min Rain = 0
KAHS 232026Z 16014KT 33/20 A2979 RMK A01 T03260195  RH  046%=      5-min Rain = 0
KAHS 232027Z 15015KT 32/19 A2979 RMK A01 T03230194  RH  047%=      5-min Rain = 0
KAHS 232028Z 17014G19KT 32/19 A2979 RMK A01 T03200192  RH  047%=      5-min Rain = 0
KAHS 232029Z 15014G19KT 32/19 A2979 RMK A01 T03190193  RH  047%=      5-min Rain = 0
KAHS 232030Z 15015KT 32/19 A2978 RMK A01 T03170190  RH  047%=      5-min Rain = 0
KAHS 232031Z 16013KT 32/19 A2978 RMK A01 T03170190  RH  047%=      5-min Rain = 0
KAHS 232032Z 17015G20KT 32/19 A2978 RMK A01 T03200191  RH  047%=      5-min Rain = 0
KAHS 232033Z 16013G19KT 32/19 A2978 RMK A01 T03210192  RH  047%=      5-min Rain = 0
KAHS 232034Z 18014KT 32/19 A2978 RMK A01 T03220192  RH  046%=      5-min Rain = 0
KAHS 232035Z 18018G26KT 32/19 A2978 RMK A01 T03190190  RH  046%=      5-min Rain = 0
KAHS 232036Z 18018G23KT 32/19 A2978 RMK A01 T03150187  RH  047%=      5-min Rain = 0
KAHS 232037Z 17014KT 32/19 A2978 RMK A01 T03150188  RH  047%=      5-min Rain = 0
KAHS 232038Z 16013KT 32/19 A2978 RMK A01 T03170191  RH  047%=      5-min Rain = 0
KAHS 232039Z 16014G20KT 32/19 A2978 RMK A01 T03210192  RH  046%=      5-min Rain = 0
KAHS 232040Z 15017KT 32/19 A2978 RMK A01 T03220190  RH  046%=      5-min Rain = 0
KAHS 232041Z 16014G19KT 32/19 A2977 RMK A01 T03200191  RH  046%=      5-min Rain = 0
KAHS 232042Z 15014KT 32/19 A2977 RMK A01 T03220194  RH  047%=      5-min Rain = 0
KAHS 232043Z 17014G19KT 33/20 A2977 RMK A01 T03250196  RH  047%=      5-min Rain = 0
KAHS 232044Z 17015KT 33/19 A2977 RMK A01 T03260194  RH  046%=      5-min Rain = 0
KAHS 232045Z 17013KT 32/19 A2977 RMK A01 T03230192  RH  046%=      5-min Rain = 0
KAHS 232046Z 16014G19KT 32/19 A2976 RMK A01 T03210194  RH  047%=      5-min Rain = 0
KAHS 232047Z 16015G20KT 32/20 A2976 RMK A01 T03190195  RH  048%=      5-min Rain = 0
KAHS 232048Z 17013G18KT 32/19 A2976 RMK A01 T03170193  RH  048%=      5-min Rain = 0
KAHS 232049Z 17020KT 32/19 A2976 RMK A01 T03150185  RH  046%=      5-min Rain = 0
KAHS 232050Z 18018KT 31/19 A2976 RMK A01 T03130185  RH  046%=      5-min Rain = 0
KAHS 232051Z 17015KT 31/19 A2976 RMK A01 T03130185  RH  046%=      5-min Rain = 0
KAHS 232052Z 16016KT 32/18 A2976 RMK A01 T03160184  RH  046%=      5-min Rain = 0
KAHS 232053Z 15012KT 32/19 A2976 RMK A01 T03190186  RH  045%=      5-min Rain = 0
KAHS 232054Z 17013KT 32/18 A2976 RMK A01 T03190184  RH  045%=      5-min Rain = 0
KAHS 232055Z 16017G23KT 32/18 A2976 RMK A01 T03160184  RH  045%=      5-min Rain = 0
KAHS 232056Z 18014G20KT 31/18 A2976 RMK A01 T03130183  RH  046%=      5-min Rain = 0
KAHS 232057Z 18014KT 31/18 A2976 RMK A01 T03100182  RH  046%=      5-min Rain = 0
KAHS 232058Z 17010KT 31/18 A2976 RMK A01 T03090184  RH  047%=      5-min Rain = 0
KAHS 232059Z 17012KT 31/18 A2976 RMK A01 T03090183  RH  047%=      5-min Rain = 0
KAHS 232100Z 17013KT 31/18 A2976 RMK A01 T03070181  RH  047%=      5-min Rain = 0
KAHS 232101Z 16011KT 31/18 A2976 RMK A01 T03070181  RH  047%=      5-min Rain = 0
KAHS 232102Z 17012G18KT 31/18 A2976 RMK A01 T03060180  RH  047%=      5-min Rain = 0
KAHS 232103Z 17014KT 31/18 A2976 RMK A01 T03060180  RH  047%=      5-min Rain = 0
KAHS 232104Z 16012KT 31/18 A2976 RMK A01 T03050180  RH  047%=      5-min Rain = 0
KAHS 232105Z 16010KT 31/18 A2976 RMK A01 T03050182  RH  048%=      5-min Rain = 0
KAHS 232106Z 17010KT 31/18 A2976 RMK A01 T03050183  RH  048%=      5-min Rain = 0
KAHS 232107Z 17013KT 30/18 A2976 RMK A01 T03040181  RH  048%=      5-min Rain = 0
KAHS 232108Z 17012KT 30/18 A2976 RMK A01 T03040180  RH  048%=      5-min Rain = 0
KAHS 232109Z 16010KT 30/18 A2975 RMK A01 T03030181  RH  048%=      5-min Rain = 0
KAHS 232110Z 15009KT 30/18 A2975 RMK A01 T03030182  RH  048%=      5-min Rain = 0
KAHS 232111Z 15013KT 30/18 A2975 RMK A01 T03020183  RH  049%=      5-min Rain = 0
KAHS 232112Z 16013KT 30/18 A2974 RMK A01 T03010184  RH  049%=      5-min Rain = 0
KAHS 232113Z 16012G19KT 30/19 A2974 RMK A01 T03010185  RH  050%=      5-min Rain = 0
KAHS 232114Z 17015KT 30/19 A2974 RMK A01 T03010185  RH  050%=      5-min Rain = 0
KAHS 232115Z 15014KT 30/19 A2974 RMK A01 T03000186  RH  050%=      5-min Rain = 0
KAHS 232116Z 15013KT 30/19 A2974 RMK A01 T03000187  RH  051%=      5-min Rain = 0
KAHS 232117Z 15012G17KT 30/19 A2974 RMK A01 T02990187  RH  051%=      5-min Rain = 0
KAHS 232118Z 15015KT 30/19 A2974 RMK A01 T02980187  RH  051%=      5-min Rain = 0
KAHS 232119Z 15015KT 30/19 A2973 RMK A01 T02980186  RH  051%=      5-min Rain = 0
KAHS 232120Z 15011KT 30/19 A2973 RMK A01 T02970185  RH  051%=      5-min Rain = 0
KAHS 232121Z 14014G19KT 30/19 A2973 RMK A01 T02970185  RH  051%=      5-min Rain = 0
KAHS 232122Z 15018KT 30/18 A2973 RMK A01 T02970184  RH  051%=      5-min Rain = 0
KAHS 232123Z 16013G19KT 30/18 A2974 RMK A01 T02970184  RH  051%=      5-min Rain = 0
KAHS 232124Z 16014KT 30/18 A2974 RMK A01 T02970184  RH  051%=      5-min Rain = 0
KAHS 232125Z 16010KT 30/19 A2974 RMK A01 T02970185  RH  051%=      5-min Rain = 0
KAHS 232126Z 15010KT 30/19 A2975 RMK A01 T02970186  RH  051%=      5-min Rain = 0
KAHS 232127Z 16011KT 30/19 A2975 RMK A01 T02960187  RH  052%=      5-min Rain = 0
KAHS 232128Z 16012G19KT 30/19 A2975 RMK A01 T02950188  RH  052%=      5-min Rain = 0
KAHS 232129Z 15014KT 30/19 A2975 RMK A01 T02950186  RH  052%=      5-min Rain = 0
KAHS 232130Z 14014KT 30/19 A2975 RMK A01 T02960186  RH  052%=      5-min Rain = 0
KAHS 232131Z 14014KT 30/19 A2975 RMK A01 T02950186  RH  052%=      5-min Rain = 0
KAHS 232132Z 14014KT 30/19 A2974 RMK A01 T02950186  RH  052%=      5-min Rain = 0
KAHS 232133Z 13012KT 30/19 A2974 RMK A01 T02950185  RH  052%=      5-min Rain = 0
KAHS 232134Z 13013KT 30/19 A2974 RMK A01 T02950185  RH  052%=      5-min Rain = 0
KAHS 232135Z 13014KT 30/19 A2974 RMK A01 T02950185  RH  052%=      5-min Rain = 0
KAHS 232136Z 12015G20KT 30/18 A2973 RMK A01 T02950184  RH  051%=      5-min Rain = 0
KAHS 232137Z 12017KT 30/18 A2973 RMK A01 T02950184  RH  051%=      5-min Rain = 0
KAHS 232138Z 11013KT 30/18 A2973 RMK A01 T02950183  RH  051%=      5-min Rain = 0
KAHS 232139Z 10015G21KT 30/18 A2973 RMK A01 T02960183  RH  051%=      5-min Rain = 0
KAHS 232140Z 10013KT 30/18 A2973 RMK A01 T02960183  RH  051%=      5-min Rain = 0
KAHS 232141Z 12011G16KT 30/18 A2973 RMK A01 T02960183  RH  051%=      5-min Rain = 0
KAHS 232142Z 11008KT 30/18 A2974 RMK A01 T02960183  RH  051%=      5-min Rain = 0
KAHS 232143Z 11004G9KT 30/18 A2974 RMK A01 T02960183  RH  051%=      5-min Rain = 0
KAHS 232144Z 13008G13KT 30/18 A2975 RMK A01 T02960184  RH  051%=      5-min Rain = 0
KAHS 232145Z 14007KT 30/18 A2975 RMK A01 T02960184  RH  051%=      5-min Rain = 0
KAHS 232146Z 17007KT 30/18 A2975 RMK A01 T02960184  RH  051%=      5-min Rain = 0
KAHS 232147Z 15006G11KT 30/19 A2974 RMK A01 T02960185  RH  051%=      5-min Rain = 0
KAHS 232148Z 14008KT 30/19 A2974 RMK A01 T02950186  RH  052%=      5-min Rain = 0
KAHS 232149Z 14011G16KT 29/19 A2973 RMK A01 T02940186  RH  052%=      5-min Rain = 0
KAHS 232150Z 13013KT 29/19 A2973 RMK A01 T02940186  RH  052%=      5-min Rain = 0
KAHS 232151Z 13010KT 29/19 A2972 RMK A01 T02930186  RH  053%=      5-min Rain = 0
KAHS 232152Z 14012G18KT 29/19 A2972 RMK A01 T02930185  RH  052%=      5-min Rain = 0
KAHS 232153Z 13011KT 29/18 A2972 RMK A01 T02930184  RH  052%=      5-min Rain = 0
KAHS 232154Z 13014G19KT 29/18 A2972 RMK A01 T02930183  RH  051%=      5-min Rain = 0
KAHS 232155Z 14014G20KT 29/18 A2972 RMK A01 T02940182  RH  051%=      5-min Rain = 0
KAHS 232156Z 14014G19KT 30/18 A2972 RMK A01 T02950182  RH  051%=      5-min Rain = 0
KAHS 232157Z 14014KT 30/18 A2972 RMK A01 T02950181  RH  050%=      5-min Rain = 0
KAHS 232158Z 14013G18KT 30/18 A2972 RMK A01 T02950181  RH  050%=      5-min Rain = 0
KAHS 232159Z 14011KT 30/18 A2972 RMK A01 T02950181  RH  050%=      5-min Rain = 0
KAHS 232200Z 14014G20KT 30/18 A2972 RMK A01 T02950182  RH  051%=      5-min Rain = 0
KAHS 232201Z 14015G20KT 30/18 A2972 RMK A01 T02950182  RH  051%=      5-min Rain = 0
KAHS 232202Z 13016G21KT 30/18 A2972 RMK A01 T02950182  RH  051%=      5-min Rain = 0
KAHS 232203Z 14012G18KT 30/18 A2972 RMK A01 T02950182  RH  051%=      5-min Rain = 0
KAHS 232204Z 14011KT 30/18 A2972 RMK A01 T02950182  RH  051%=      5-min Rain = 0
KAHS 232205Z 14012KT 30/18 A2972 RMK A01 T02950182  RH  051%=      5-min Rain = 0
KAHS 232206Z 13012KT 29/18 A2973 RMK A01 T02940182  RH  051%=      5-min Rain = 0
KAHS 232207Z 14008KT 29/18 A2973 RMK A01 T02940183  RH  051%=      5-min Rain = 0
KAHS 232208Z 13009KT 29/18 A2973 RMK A01 T02940183  RH  051%=      5-min Rain = 0
KAHS 232209Z 14009KT 29/18 A2973 RMK A01 T02930184  RH  052%=      5-min Rain = 0
KAHS 232210Z 14014KT 29/18 A2973 RMK A01 T02930184  RH  052%=      5-min Rain = 0
KAHS 232211Z 13012KT 29/18 A2973 RMK A01 T02930184  RH  052%=      5-min Rain = 0
KAHS 232212Z 15011KT 29/18 A2973 RMK A01 T02930184  RH  052%=      5-min Rain = 0
KAHS 232213Z 14013KT 29/18 A2974 RMK A01 T02930184  RH  052%=      5-min Rain = 0
KAHS 232214Z 14013KT 29/18 A2974 RMK A01 T02930184  RH  052%=      5-min Rain = 0
KAHS 232215Z 15010KT 29/18 A2974 RMK A01 T02930184  RH  052%=      5-min Rain = 0
KAHS 232216Z 14012G17KT 29/18 A2974 RMK A01 T02930184  RH  052%=      5-min Rain = 0
KAHS 232217Z 14013KT 29/18 A2974 RMK A01 T02930183  RH  052%=      5-min Rain = 0
KAHS 232218Z 14013KT 29/18 A2974 RMK A01 T02930183  RH  051%=      5-min Rain = 0
KAHS 232219Z 14012KT 29/18 A2974 RMK A01 T02930183  RH  051%=      5-min Rain = 0
KAHS 232220Z 14013G20KT 29/18 A2974 RMK A01 T02930184  RH  052%=      5-min Rain = 0
KAHS 232221Z 14015KT 29/18 A2973 RMK A01 T02930183  RH  051%=      5-min Rain = 0
KAHS 232222Z 14016KT 29/18 A2973 RMK A01 T02930183  RH  051%=      5-min Rain = 0
KAHS 232223Z 14012KT 29/18 A2973 RMK A01 T02940183  RH  051%=      5-min Rain = 0
KAHS 232224Z 13010KT 29/18 A2973 RMK A01 T02930183  RH  052%=      5-min Rain = 0
KAHS 232225Z 13013KT 29/18 A2973 RMK A01 T02930184  RH  052%=      5-min Rain = 0
KAHS 232226Z 14014KT 29/18 A2972 RMK A01 T02930183  RH  052%=      5-min Rain = 0
KAHS 232227Z 14012G17KT 29/18 A2973 RMK A01 T02930183  RH  052%=      5-min Rain = 0
KAHS 232228Z 14010KT 29/18 A2973 RMK A01 T02930183  RH  052%=      5-min Rain = 0
KAHS 232229Z 13013KT 29/18 A2973 RMK A01 T02930183  RH  052%=      5-min Rain = 0
KAHS 232230Z 14009G15KT 29/18 A2974 RMK A01 T02930182  RH  051%=      5-min Rain = 0
KAHS 232231Z 14014KT 29/18 A2974 RMK A01 T02930182  RH  051%=      5-min Rain = 0
KAHS 232232Z 14013G18KT 29/18 A2974 RMK A01 T02930182  RH  051%=      5-min Rain = 0
KAHS 232233Z 15011KT 29/18 A2974 RMK A01 T02940182  RH  051%=      5-min Rain = 0
KAHS 232234Z 14010G18KT 29/18 A2974 RMK A01 T02940182  RH  051%=      5-min Rain = 0
KAHS 232235Z 15014G19KT 29/18 A2974 RMK A01 T02940181  RH  051%=      5-min Rain = 0
KAHS 232236Z 14013KT 29/18 A2974 RMK A01 T02930181  RH  051%=      5-min Rain = 0
KAHS 232237Z 14012KT 29/18 A2974 RMK A01 T02930181  RH  051%=      5-min Rain = 0
KAHS 232238Z 15013KT 29/18 A2974 RMK A01 T02940180  RH  050%=      5-min Rain = 0
KAHS 232239Z 14014KT 29/18 A2974 RMK A01 T02930180  RH  050%=      5-min Rain = 0
KAHS 232240Z 14013KT 29/18 A2974 RMK A01 T02940180  RH  051%=      5-min Rain = 0
KAHS 232241Z 14013KT 29/18 A2973 RMK A01 T02930180  RH  050%=      5-min Rain = 0
KAHS 232242Z 13011KT 29/18 A2973 RMK A01 T02940180  RH  051%=      5-min Rain = 0
KAHS 232243Z 14013KT 29/18 A2973 RMK A01 T02930180  RH  051%=      5-min Rain = 0
KAHS 232244Z 14014KT 29/18 A2973 RMK A01 T02930179  RH  050%=      5-min Rain = 0
KAHS 232245Z 13012KT 29/18 A2972 RMK A01 T02930179  RH  050%=      5-min Rain = 0
KAHS 232246Z 13010KT 29/18 A2972 RMK A01 T02930180  RH  051%=      5-min Rain = 0
KAHS 232247Z 13014KT 29/18 A2972 RMK A01 T02930180  RH  051%=      5-min Rain = 0
KAHS 232248Z 13011KT 29/18 A2972 RMK A01 T02930180  RH  051%=      5-min Rain = 0
KAHS 232249Z 13013KT 29/18 A2972 RMK A01 T02920180  RH  051%=      5-min Rain = 0
KAHS 232250Z 13013KT 29/18 A2972 RMK A01 T02920180  RH  051%=      5-min Rain = 0
KAHS 232251Z 13009KT 29/18 A2972 RMK A01 T02930181  RH  051%=      5-min Rain = 0
KAHS 232252Z 12009KT 29/18 A2972 RMK A01 T02920181  RH  051%=      5-min Rain = 0
KAHS 232253Z 11010KT 29/18 A2973 RMK A01 T02920181  RH  051%=      5-min Rain = 0
KAHS 232254Z 11010KT 29/18 A2973 RMK A01 T02920181  RH  051%=      5-min Rain = 0
KAHS 232255Z 12006KT 29/18 A2973 RMK A01 T02910182  RH  052%=      5-min Rain = 0
KAHS 232256Z 12007KT 29/18 A2974 RMK A01 T02910182  RH  052%=      5-min Rain = 0
KAHS 232257Z 11006KT 29/18 A2974 RMK A01 T02900182  RH  052%=      5-min Rain = 0
KAHS 232258Z 12007KT 29/18 A2974 RMK A01 T02900182  RH  052%=      5-min Rain = 0
KAHS 232259Z 12009KT 29/18 A2974 RMK A01 T02900182  RH  052%=      5-min Rain = 0
KAHS 232300Z 11006KT 29/18 A2973 RMK A01 T02890183  RH  052%=      5-min Rain = 0
KAHS 232301Z 11007KT 29/18 A2973 RMK A01 T02880183  RH  053%=      5-min Rain = 0
KAHS 232302Z 11007KT 29/18 A2973 RMK A01 T02880183  RH  053%=      5-min Rain = 0
KAHS 232303Z 12006KT 29/18 A2974 RMK A01 T02880182  RH  053%=      5-min Rain = 0
KAHS 232304Z 12009KT 29/18 A2974 RMK A01 T02880183  RH  053%=      5-min Rain = 0
KAHS 232305Z 11007KT 29/18 A2974 RMK A01 T02890182  RH  053%=      5-min Rain = 0
KAHS 232306Z 12007KT 29/18 A2973 RMK A01 T02890183  RH  053%=      5-min Rain = 0
KAHS 232307Z 11009KT 29/18 A2973 RMK A01 T02880182  RH  053%=      5-min Rain = 0
KAHS 232308Z 11008KT 29/18 A2972 RMK A01 T02880183  RH  053%=      5-min Rain = 0
KAHS 232309Z 11007KT 29/18 A2972 RMK A01 T02880183  RH  053%=      5-min Rain = 0
KAHS 232310Z 11008KT 29/18 A2972 RMK A01 T02880184  RH  053%=      5-min Rain = 0
KAHS 232311Z 11008KT 29/18 A2972 RMK A01 T02880184  RH  054%=      5-min Rain = 0
KAHS 232312Z 11009KT 29/18 A2971 RMK A01 T02870184  RH  054%=      5-min Rain = 0
KAHS 232313Z 11011KT 29/18 A2971 RMK A01 T02870184  RH  054%=      5-min Rain = 0
KAHS 232314Z 11009KT 29/18 A2971 RMK A01 T02870184  RH  054%=      5-min Rain = 0
KAHS 232315Z 12009KT 29/18 A2971 RMK A01 T02870184  RH  054%=      5-min Rain = 0
KAHS 232316Z 10011KT 29/18 A2971 RMK A01 T02870184  RH  054%=      5-min Rain = 0
KAHS 232317Z 11010KT 29/18 A2971 RMK A01 T02870184  RH  054%=      5-min Rain = 0
KAHS 232318Z 10009KT 29/18 A2971 RMK A01 T02870184  RH  054%=      5-min Rain = 0
KAHS 232319Z 12010G15KT 29/18 A2971 RMK A01 T02870184  RH  054%=      5-min Rain = 0
KAHS 232320Z 11010KT 29/18 A2972 RMK A01 T02870183  RH  053%=      5-min Rain = 0
KAHS 232321Z 12009G14KT 29/18 A2972 RMK A01 T02870183  RH  053%=      5-min Rain = 0
KAHS 232322Z 12010KT 29/18 A2972 RMK A01 T02870183  RH  053%=      5-min Rain = 0
KAHS 232323Z 12010KT 29/18 A2971 RMK A01 T02880182  RH  053%=      5-min Rain = 0
KAHS 232324Z 12011KT 29/18 A2971 RMK A01 T02880182  RH  053%=      5-min Rain = 0
KAHS 232325Z 11013KT 29/18 A297 RMK A01 T02890181  RH  052%=      5-min Rain = 0
KAHS 232326Z 11011KT 29/18 A2969 RMK A01 T02890181  RH  052%=      5-min Rain = 0
KAHS 232327Z 11010KT 29/18 A2969 RMK A01 T02890181  RH  052%=      5-min Rain = 0
KAHS 232328Z 11012KT 29/18 A2969 RMK A01 T02890181  RH  052%=      5-min Rain = 0
KAHS 232329Z 11011KT 29/18 A2969 RMK A01 T02890180  RH  052%=      5-min Rain = 0
KAHS 232330Z 11013KT 29/18 A2969 RMK A01 T02900180  RH  052%=      5-min Rain = 0
KAHS 232331Z 11011KT 29/18 A2969 RMK A01 T02900181  RH  052%=      5-min Rain = 0
KAHS 232332Z 10009KT 29/18 A297 RMK A01 T02900181  RH  052%=      5-min Rain = 0
KAHS 232333Z 11009KT 29/18 A297 RMK A01 T02900181  RH  052%=      5-min Rain = 0
KAHS 232334Z 10011KT 29/18 A297 RMK A01 T02900181  RH  052%=      5-min Rain = 0
KAHS 232335Z 10011G17KT 29/18 A2969 RMK A01 T02900181  RH  052%=      5-min Rain = 0
KAHS 232336Z 11010KT 29/18 A2969 RMK A01 T02890182  RH  052%=      5-min Rain = 0
KAHS 232337Z 10013G18KT 29/18 A2969 RMK A01 T02890182  RH  052%=      5-min Rain = 0
KAHS 232338Z 10011KT 29/18 A2969 RMK A01 T02890182  RH  052%=      5-min Rain = 0
KAHS 232339Z 11010KT 29/18 A2969 RMK A01 T02880183  RH  053%=      5-min Rain = 0
KAHS 232340Z 12011KT 29/18 A2969 RMK A01 T02870183  RH  053%=      5-min Rain = 0
KAHS 232341Z 11010KT 29/18 A2969 RMK A01 T02860183  RH  054%=      5-min Rain = 0
KAHS 232342Z 12010KT 29/18 A297 RMK A01 T02860182  RH  053%=      5-min Rain = 0
KAHS 232343Z 13009KT 29/18 A297 RMK A01 T02860182  RH  053%=      5-min Rain = 0
KAHS 232344Z 12008KT 29/18 A297 RMK A01 T02860182  RH  053%=      5-min Rain = 0
KAHS 232345Z 12010KT 29/18 A2971 RMK A01 T02860182  RH  053%=      5-min Rain = 0
KAHS 232346Z 13009KT 29/18 A2971 RMK A01 T02860181  RH  053%=      5-min Rain = 0
KAHS 232347Z 13009KT 29/18 A2971 RMK A01 T02860180  RH  053%=      5-min Rain = 0
KAHS 232348Z 13008KT 29/18 A2971 RMK A01 T02870181  RH  053%=      5-min Rain = 0
KAHS 232349Z 13008KT 29/18 A2971 RMK A01 T02870181  RH  053%=      5-min Rain = 0
KAHS 232350Z 13008KT 29/18 A2971 RMK A01 T02870181  RH  053%=      5-min Rain = 0
KAHS 232351Z 12007KT 29/18 A2972 RMK A01 T02870181  RH  053%=      5-min Rain = 0
KAHS 232352Z 14006KT 29/18 A2972 RMK A01 T02870183  RH  054%=      5-min Rain = 0
KAHS 232353Z 14007KT 29/18 A2972 RMK A01 T02860183  RH  054%=      5-min Rain = 0
KAHS 232354Z 14012KT 29/18 A2972 RMK A01 T02850184  RH  054%=      5-min Rain = 0
KAHS 232355Z 15011KT 29/18 A2973 RMK A01 T02850183  RH  054%=      5-min Rain = 0
KAHS 232356Z 15008KT 29/18 A2973 RMK A01 T02860183  RH  054%=      5-min Rain = 0
KAHS 232357Z 15009KT 29/19 A2973 RMK A01 T02850185  RH  055%=      5-min Rain = 0
KAHS 232358Z 14012KT 28/18 A2972 RMK A01 T02840184  RH  054%=      5-min Rain = 0
KAHS 232359Z 15008KT 28/19 A2972 RMK A01 T02840185  RH  055%=      5-min Rain = 0
KAHS 240000Z 15009KT 28/19 A2972 RMK A01 T02830187  RH  056%=      5-min Rain = 0
KAHS 240001Z 16010KT 28/19 A2972 RMK A01 T02820186  RH  056%=      5-min Rain = 0
KAHS 240002Z 16012KT 28/19 A2973 RMK A01 T02820186  RH  056%=      5-min Rain = 0
KAHS 240003Z 16011KT 28/19 A2973 RMK A01 T02820189  RH  057%=      5-min Rain = 0
KAHS 240004Z 18011KT 28/19 A2973 RMK A01 T02800191  RH  059%=      5-min Rain = 0
KAHS 240005Z 17014KT 28/19 A2973 RMK A01 T02770193  RH  060%=      5-min Rain = 0
KAHS 240006Z 19011KT 27/20 A2973 RMK A01 T02730196  RH  063%=      5-min Rain = 0.02
KAHS 240007Z 20010KT 27/20 A2973 RMK A01 T02650197  RH  066%=      5-min Rain = 0.01
KAHS 240008Z 19010KT 26/20 A2972 RMK A01 T02590199  RH  069%=      5-min Rain = 0
KAHS 240009Z 19010KT 26/20 A2972 RMK A01 T02550199  RH  071%=      5-min Rain = 0.01
KAHS 240010Z 18009KT 25/20 A2971 RMK A01 T02530201  RH  073%=      5-min Rain = 0
KAHS 240011Z 18011KT 25/20 A2971 RMK A01 T02500202  RH  074%=      5-min Rain = 0
KAHS 240012Z 18012KT 25/20 A2971 RMK A01 T02500202  RH  074%=      5-min Rain = 0
KAHS 240013Z 18015KT 25/20 A297 RMK A01 T02510201  RH  074%=      5-min Rain = 0
KAHS 240014Z 18013KT 25/20 A297 RMK A01 T02500201  RH  074%=      5-min Rain = 0.01
KAHS 240015Z 19011KT 25/20 A2969 RMK A01 T02490202  RH  075%=      5-min Rain = 0
KAHS 240016Z 19011KT 25/20 A2969 RMK A01 T02470202  RH  076%=      5-min Rain = 0
KAHS 240017Z 18013KT 25/20 A297 RMK A01 T02470202  RH  076%=      5-min Rain = 0
KAHS 240018Z 19012KT 25/20 A297 RMK A01 T02470202  RH  076%=      5-min Rain = 0
KAHS 240019Z 19012KT 25/20 A297 RMK A01 T02470202  RH  076%=      5-min Rain = 0.01
KAHS 240020Z 19014KT 25/20 A2971 RMK A01 T02470202  RH  076%=      5-min Rain = 0
KAHS 240021Z 19014KT 25/20 A2972 RMK A01 T02480202  RH  075%=      5-min Rain = 0
KAHS 240022Z 19013KT 25/20 A2973 RMK A01 T02490202  RH  075%=      5-min Rain = 0
KAHS 240023Z 19012G17KT 25/20 A2974 RMK A01 T02500201  RH  074%=      5-min Rain = 0.01
KAHS 240024Z 18018G24KT 25/20 A2974 RMK A01 T02520200  RH  073%=      5-min Rain = 0
KAHS 240025Z 18017G22KT 25/20 A2975 RMK A01 T02530199  RH  072%=      5-min Rain = 0.01
KAHS 240026Z 19011G16KT 25/20 A2976 RMK A01 T02520200  RH  073%=      5-min Rain = 0.01
KAHS 240027Z 18011G16KT 25/20 A2976 RMK A01 T02510201  RH  074%=      5-min Rain = 0
KAHS 240028Z 18011KT 25/20 A2976 RMK A01 T02500201  RH  074%=      5-min Rain = 0
KAHS 240029Z 19007KT 25/20 A2976 RMK A01 T02510201  RH  074%=      5-min Rain = 0
KAHS 240030Z 17006KT 25/20 A2976 RMK A01 T02500203  RH  075%=      5-min Rain = 0.01
KAHS 240031Z 17005KT 25/20 A2976 RMK A01 T02480204  RH  077%=      5-min Rain = 0.01
KAHS 240032Z 14005KT 25/20 A2976 RMK A01 T02460203  RH  077%=      5-min Rain = 0.01
KAHS 240033Z 13005KT 25/20 A2976 RMK A01 T02460202  RH  077%=      5-min Rain = 0.01
KAHS 240034Z 11005KT 25/20 A2976 RMK A01 T02470202  RH  076%=      5-min Rain = 0.01
KAHS 240035Z 09004KT 25/20 A2977 RMK A01 T02460202  RH  077%=      5-min Rain = 0
KAHS 240036Z 07006KT 24/20 A2977 RMK A01 T02440202  RH  077%=      5-min Rain = 0
KAHS 240037Z 06006KT 25/20 A2977 RMK A01 T02470202  RH  076%=      5-min Rain = 0.01
KAHS 240038Z 04008KT 25/20 A2978 RMK A01 T02450204  RH  078%=      5-min Rain = 0
KAHS 240039Z 03006KT 24/21 A2978 RMK A01 T02440205  RH  079%=      5-min Rain = 0
KAHS 240040Z 03008KT 24/21 A2979 RMK A01 T02410207  RH  081%=      5-min Rain = 0
KAHS 240041Z 35008G18KT 24/21 A2979 RMK A01 T02390208  RH  083%=      5-min Rain = 0
KAHS 240042Z 33018KT 23/21 A298 RMK A01 T02340205  RH  084%=      5-min Rain = 0
KAHS 240043Z 32018G24KT 23/20 A298 RMK A01 T02260198  RH  084%=      5-min Rain = 0
KAHS 240044Z 33018KT 22/19 A298 RMK A01 T02170191  RH  085%=      5-min Rain = 0
KAHS 240045Z 33012G17KT 21/19 A2981 RMK A01 T02120189  RH  087%=      5-min Rain = 0
KAHS 240046Z 33016KT 21/19 A2981 RMK A01 T02080188  RH  088%=      5-min Rain = 0
KAHS 240047Z 33013G19KT 21/19 A2981 RMK A01 T02050187  RH  089%=      5-min Rain = 0
KAHS 240048Z 33013KT 20/19 A2981 RMK A01 T02030186  RH  090%=      5-min Rain = 0
KAHS 240049Z 34015KT 20/19 A2981 RMK A01 T02020186  RH  090%=      5-min Rain = 0
KAHS 240050Z 34014G19KT 20/19 A2981 RMK A01 T02010186  RH  091%=      5-min Rain = 0
KAHS 240051Z 33028G33KT 20/19 A298 RMK A01 T02000185  RH  091%=      5-min Rain = 0
KAHS 240052Z 34027G36KT 20/18 A2981 RMK A01 T01970179  RH  089%=      5-min Rain = 0
KAHS 240053Z 36023G32KT 19/18 A2981 RMK A01 T01940175  RH  089%=      5-min Rain = 0
KAHS 240054Z 00022G30KT 19/17 A2982 RMK A01 T01930173  RH  088%=      5-min Rain = 0.01
KAHS 240055Z 35019G36KT 19/17 A2982 RMK A01 T01910170  RH  087%=      5-min Rain = 0
KAHS 240056Z 00024G33KT 19/17 A2982 RMK A01 T01890168  RH  088%=      5-min Rain = 0
KAHS 240057Z 35024G30KT 19/17 A2982 RMK A01 T01870168  RH  089%=      5-min Rain = 0
KAHS 240058Z 35021G36KT 19/17 A2982 RMK A01 T01860168  RH  089%=      5-min Rain = 0
KAHS 240059Z 36023G30KT 18/17 A2983 RMK A01 T01840166  RH  089%=      5-min Rain = 0
KAHS 240100Z 33020G30KT 18/16 A2982 RMK A01 T01820164  RH  089%=      5-min Rain = 0
KAHS 240101Z 01027G40KT 18/16 A2983 RMK A01 T01820163  RH  089%=      5-min Rain = 0
KAHS 240102Z 02023G36KT 18/16 A2983 RMK A01 T01810164  RH  090%=      5-min Rain = 0
KAHS 240103Z 01026G39KT 18/16 A2983 RMK A01 T01790164  RH  091%=      5-min Rain = 0
KAHS 240104Z 01030G41KT 18/16 A2984 RMK A01 T01780164  RH  091%=      5-min Rain = 0
KAHS 240105Z 02022G27KT 18/16 A2985 RMK A01 T01770164  RH  092%=      5-min Rain = 0
KAHS 240106Z 02026G35KT 18/16 A2984 RMK A01 T01760163  RH  092%=      5-min Rain = 0
KAHS 240107Z 02018G26KT 18/16 A2984 RMK A01 T01750163  RH  093%=      5-min Rain = 0
KAHS 240108Z 01021KT 18/16 A2983 RMK A01 T01750163  RH  093%=      5-min Rain = 0
KAHS 240109Z 02021G26KT 17/16 A2982 RMK A01 T01740163  RH  093%=      5-min Rain = 0
KAHS 240110Z 02023G29KT 17/16 A2982 RMK A01 T01730162  RH  093%=      5-min Rain = 0
KAHS 240111Z 02026KT 17/16 A2982 RMK A01 T01720161  RH  093%=      5-min Rain = 0
KAHS 240112Z 03025G34KT 17/16 A2982 RMK A01 T01720160  RH  092%=      5-min Rain = 0
KAHS 240113Z 04022KT 17/16 A2982 RMK A01 T01720159  RH  092%=      5-min Rain = 0
KAHS 240114Z 04018G25KT 17/16 A2982 RMK A01 T01720158  RH  092%=      5-min Rain = 0
KAHS 240115Z 04021KT 17/16 A2982 RMK A01 T01710157  RH  091%=      5-min Rain = 0
KAHS 240116Z 02025G30KT 17/16 A2981 RMK A01 T01720156  RH  090%=      5-min Rain = 0
KAHS 240117Z 02023G33KT 17/15 A2982 RMK A01 T01740154  RH  088%=      5-min Rain = 0
KAHS 240118Z 02015G22KT 18/15 A2983 RMK A01 T01760153  RH  086%=      5-min Rain = 0
KAHS 240119Z 01020G30KT 18/15 A2983 RMK A01 T01760152  RH  086%=      5-min Rain = 0
KAHS 240120Z 01023G29KT 18/15 A2984 RMK A01 T01750151  RH  086%=      5-min Rain = 0
KAHS 240121Z 01022G32KT 18/15 A2985 RMK A01 T01750151  RH  086%=      5-min Rain = 0
KAHS 240122Z 01026G35KT 18/15 A2985 RMK A01 T01750150  RH  085%=      5-min Rain = 0
KAHS 240123Z 01023G28KT 18/15 A2985 RMK A01 T01750150  RH  086%=      5-min Rain = 0
KAHS 240124Z 00020G25KT 17/15 A2986 RMK A01 T01730151  RH  087%=      5-min Rain = 0
KAHS 240125Z 35023G28KT 17/15 A2987 RMK A01 T01720152  RH  088%=      5-min Rain = 0
KAHS 240126Z 35017KT 17/15 A2987 RMK A01 T01720152  RH  088%=      5-min Rain = 0
KAHS 240127Z 34019G31KT 17/15 A2987 RMK A01 T01720154  RH  089%=      5-min Rain = 0
KAHS 240128Z 34019G25KT 17/15 A2987 RMK A01 T01710154  RH  090%=      5-min Rain = 0
KAHS 240129Z 34019G24KT 17/16 A2987 RMK A01 T01710155  RH  090%=      5-min Rain = 0
KAHS 240130Z 36016G22KT 17/16 A2987 RMK A01 T01710155  RH  090%=      5-min Rain = 0.01
KAHS 240131Z 01018G26KT 17/16 A2986 RMK A01 T01710155  RH  090%=      5-min Rain = 0
KAHS 240132Z 01019G24KT 17/15 A2985 RMK A01 T01700153  RH  090%=      5-min Rain = 0
KAHS 240133Z 01020G29KT 17/15 A2985 RMK A01 T01710153  RH  089%=      5-min Rain = 0
KAHS 240134Z 01021G27KT 17/15 A2985 RMK A01 T01710153  RH  089%=      5-min Rain = 0
KAHS 240135Z 01018G24KT 17/15 A2984 RMK A01 T01710154  RH  090%=      5-min Rain = 0
KAHS 240136Z 01019G25KT 17/15 A2984 RMK A01 T01700154  RH  090%=      5-min Rain = 0
KAHS 240137Z 01021KT 17/16 A2983 RMK A01 T01700155  RH  091%=      5-min Rain = 0
KAHS 240138Z 01019G24KT 17/16 A2983 RMK A01 T01690155  RH  091%=      5-min Rain = 0
KAHS 240139Z 01021G26KT 17/16 A2983 RMK A01 T01690155  RH  092%=      5-min Rain = 0
KAHS 240140Z 01020G26KT 17/16 A2983 RMK A01 T01680155  RH  092%=      5-min Rain = 0
KAHS 240141Z 02016G23KT 17/15 A2983 RMK A01 T01680154  RH  091%=      5-min Rain = 0
KAHS 240142Z 02018G23KT 17/15 A2983 RMK A01 T01680154  RH  091%=      5-min Rain = 0
KAHS 240143Z 01017G22KT 17/15 A2983 RMK A01 T01680154  RH  092%=      5-min Rain = 0
KAHS 240144Z 02017KT 17/15 A2983 RMK A01 T01670154  RH  092%=      5-min Rain = 0
KAHS 240145Z 02018KT 17/15 A2983 RMK A01 T01670154  RH  092%=      5-min Rain = 0
KAHS 240146Z 01018G23KT 17/15 A2982 RMK A01 T01670153  RH  091%=      5-min Rain = 0
KAHS 240147Z 02016KT 17/15 A2982 RMK A01 T01670153  RH  091%=      5-min Rain = 0
KAHS 240148Z 01013G18KT 17/15 A2982 RMK A01 T01670152  RH  091%=      5-min Rain = 0
KAHS 240149Z 02016KT 17/15 A2981 RMK A01 T01670152  RH  091%=      5-min Rain = 0.01
KAHS 240150Z 02015KT 17/15 A2981 RMK A01 T01670152  RH  090%=      5-min Rain = 0
KAHS 240151Z 03016KT 17/15 A2981 RMK A01 T01680152  RH  090%=      5-min Rain = 0
KAHS 240152Z 02017KT 17/15 A2981 RMK A01 T01670152  RH  091%=      5-min Rain = 0
KAHS 240153Z 03017KT 17/15 A298 RMK A01 T01670152  RH  091%=      5-min Rain = 0
KAHS 240154Z 02018KT 17/15 A298 RMK A01 T01670151  RH  090%=      5-min Rain = 0
KAHS 240155Z 02016KT 17/15 A298 RMK A01 T01670151  RH  090%=      5-min Rain = 0
KAHS 240156Z 03017G22KT 17/15 A298 RMK A01 T01680151  RH  090%=      5-min Rain = 0
KAHS 240157Z 03019KT 17/15 A298 RMK A01 T01690150  RH  089%=      5-min Rain = 0
KAHS 240158Z 03018KT 17/15 A298 RMK A01 T01690149  RH  088%=      5-min Rain = 0
KAHS 240159Z 02016KT 17/15 A298 RMK A01 T01700149  RH  088%=      5-min Rain = 0
KAHS 240200Z 03015KT 17/15 A298 RMK A01 T01700149  RH  088%=      5-min Rain = 0
KAHS 240201Z 03013G18KT 17/15 A298 RMK A01 T01700149  RH  087%=      5-min Rain = 0
KAHS 240202Z 03014KT 17/15 A298 RMK A01 T01710149  RH  087%=      5-min Rain = 0
KAHS 240203Z 03015KT 17/15 A298 RMK A01 T01710149  RH  087%=      5-min Rain = 0
KAHS 240204Z 02016KT 17/15 A298 RMK A01 T01720149  RH  086%=      5-min Rain = 0
KAHS 240205Z 03014KT 17/15 A298 RMK A01 T01720148  RH  086%=      5-min Rain = 0
KAHS 240206Z 02015KT 17/15 A298 RMK A01 T01720148  RH  085%=      5-min Rain = 0
KAHS 240207Z 03012KT 17/15 A298 RMK A01 T01730148  RH  085%=      5-min Rain = 0
KAHS 240208Z 03011G16KT 17/15 A2981 RMK A01 T01730148  RH  085%=      5-min Rain = 0
KAHS 240209Z 03012KT 17/15 A2981 RMK A01 T01730148  RH  085%=      5-min Rain = 0
KAHS 240210Z 03012KT 17/15 A2981 RMK A01 T01730148  RH  085%=      5-min Rain = 0
KAHS 240211Z 03010KT 17/15 A2982 RMK A01 T01730148  RH  085%=      5-min Rain = 0
KAHS 240212Z 03011KT 17/15 A2982 RMK A01 T01730149  RH  086%=      5-min Rain = 0
KAHS 240213Z 03011G16KT 17/15 A2982 RMK A01 T01730149  RH  086%=      5-min Rain = 0
KAHS 240214Z 03014G20KT 17/15 A2982 RMK A01 T01730149  RH  085%=      5-min Rain = 0
KAHS 240215Z 03014KT 17/15 A2983 RMK A01 T01740148  RH  085%=      5-min Rain = 0
KAHS 240216Z 04011KT 17/15 A2983 RMK A01 T01740147  RH  084%=      5-min Rain = 0
KAHS 240217Z 05010KT 17/15 A2983 RMK A01 T01740148  RH  084%=      5-min Rain = 0
KAHS 240218Z 06008KT 17/15 A2983 RMK A01 T01740148  RH  085%=      5-min Rain = 0
KAHS 240219Z 05009KT 17/15 A2983 RMK A01 T01730148  RH  085%=      5-min Rain = 0
KAHS 240220Z 06006KT 17/15 A2983 RMK A01 T01730149  RH  086%=      5-min Rain = 0
KAHS 240221Z 05008KT 17/15 A2983 RMK A01 T01720149  RH  086%=      5-min Rain = 0
KAHS 240222Z 04007KT 17/15 A2983 RMK A01 T01720149  RH  086%=      5-min Rain = 0
KAHS 240223Z 05006KT 17/15 A2984 RMK A01 T01720149  RH  086%=      5-min Rain = 0
KAHS 240224Z 04008KT 17/15 A2984 RMK A01 T01720149  RH  086%=      5-min Rain = 0
KAHS 240225Z 03006KT 17/15 A2984 RMK A01 T01720148  RH  086%=      5-min Rain = 0
KAHS 240226Z 04007KT 17/15 A2984 RMK A01 T01720149  RH  086%=      5-min Rain = 0
KAHS 240227Z 05009KT 17/15 A2984 RMK A01 T01710148  RH  086%=      5-min Rain = 0
KAHS 240228Z 05010KT 17/15 A2984 RMK A01 T01710148  RH  086%=      5-min Rain = 0
KAHS 240229Z 05009KT 17/15 A2984 RMK A01 T01710148  RH  086%=      5-min Rain = 0
KAHS 240230Z 05007KT 17/15 A2985 RMK A01 T01710148  RH  087%=      5-min Rain = 0
KAHS 240231Z 05008KT 17/15 A2985 RMK A01 T01710149  RH  087%=      5-min Rain = 0
KAHS 240232Z 04008KT 17/15 A2985 RMK A01 T01700149  RH  087%=      5-min Rain = 0
KAHS 240233Z 05007KT 17/15 A2985 RMK A01 T01710149  RH  087%=      5-min Rain = 0
KAHS 240234Z 06007KT 17/15 A2985 RMK A01 T01710149  RH  087%=      5-min Rain = 0
KAHS 240235Z 06007KT 17/15 A2985 RMK A01 T01710148  RH  087%=      5-min Rain = 0
KAHS 240236Z 06008KT 17/15 A2985 RMK A01 T01710149  RH  087%=      5-min Rain = 0
KAHS 240237Z 07010KT 17/15 A2985 RMK A01 T01710149  RH  087%=      5-min Rain = 0
KAHS 240238Z 07010KT 17/15 A2985 RMK A01 T01710149  RH  087%=      5-min Rain = 0
KAHS 240239Z 07010KT 17/15 A2985 RMK A01 T01720149  RH  087%=      5-min Rain = 0
KAHS 240240Z 08011KT 17/15 A2985 RMK A01 T01720150  RH  087%=      5-min Rain = 0
KAHS 240241Z 08011KT 17/15 A2984 RMK A01 T01720150  RH  087%=      5-min Rain = 0
KAHS 240242Z 08011KT 17/15 A2984 RMK A01 T01720150  RH  087%=      5-min Rain = 0
KAHS 240243Z 07012KT 17/15 A2984 RMK A01 T01720150  RH  087%=      5-min Rain = 0
KAHS 240244Z 07011KT 17/15 A2983 RMK A01 T01720150  RH  087%=      5-min Rain = 0
KAHS 240245Z 07013KT 17/15 A2983 RMK A01 T01710149  RH  087%=      5-min Rain = 0
KAHS 240246Z 07014KT 17/15 A2982 RMK A01 T01710149  RH  087%=      5-min Rain = 0
KAHS 240247Z 07013G18KT 17/15 A2982 RMK A01 T01710148  RH  086%=      5-min Rain = 0
KAHS 240248Z 07013KT 17/15 A2982 RMK A01 T01720148  RH  086%=      5-min Rain = 0
KAHS 240249Z 07013KT 17/15 A2981 RMK A01 T01720148  RH  086%=      5-min Rain = 0
KAHS 240250Z 07014KT 17/15 A2981 RMK A01 T01720148  RH  086%=      5-min Rain = 0
KAHS 240251Z 07011KT 17/15 A2981 RMK A01 T01720147  RH  086%=      5-min Rain = 0
KAHS 240252Z 07012KT 17/15 A2981 RMK A01 T01720147  RH  086%=      5-min Rain = 0
KAHS 240253Z 07011KT 17/15 A298 RMK A01 T01720147  RH  086%=      5-min Rain = 0
KAHS 240254Z 07011KT 17/15 A298 RMK A01 T01720147  RH  086%=      5-min Rain = 0
KAHS 240255Z 07011KT 17/15 A298 RMK A01 T01720147  RH  086%=      5-min Rain = 0
KAHS 240256Z 08012KT 17/15 A298 RMK A01 T01720147  RH  085%=      5-min Rain = 0
KAHS 240257Z 07008G13KT 17/15 A298 RMK A01 T01720147  RH  085%=      5-min Rain = 0
KAHS 240258Z 07008KT 17/15 A298 RMK A01 T01720148  RH  085%=      5-min Rain = 0
KAHS 240259Z 07008KT 17/15 A298 RMK A01 T01720147  RH  086%=      5-min Rain = 0
KAHS 240300Z 07006KT 17/15 A298 RMK A01 T01720147  RH  085%=      5-min Rain = 0
KAHS 240301Z 07006KT 17/15 A2981 RMK A01 T01720147  RH  085%=      5-min Rain = 0
KAHS 240302Z 08005KT 17/15 A2981 RMK A01 T01730147  RH  085%=      5-min Rain = 0
KAHS 240303Z 08006KT 17/15 A2982 RMK A01 T01730147  RH  085%=      5-min Rain = 0
KAHS 240304Z 09004KT 17/15 A2982 RMK A01 T01730147  RH  085%=      5-min Rain = 0
KAHS 240305Z 09004KT 17/15 A2982 RMK A01 T01730148  RH  085%=      5-min Rain = 0
KAHS 240306Z 09004KT 17/15 A2982 RMK A01 T01730148  RH  085%=      5-min Rain = 0
KAHS 240307Z 10005KT 17/15 A2982 RMK A01 T01730148  RH  086%=      5-min Rain = 0
KAHS 240308Z 10007KT 17/15 A2982 RMK A01 T01730149  RH  086%=      5-min Rain = 0
KAHS 240309Z 10006KT 17/15 A2981 RMK A01 T01730148  RH  085%=      5-min Rain = 0
KAHS 240310Z 10008KT 17/15 A2981 RMK A01 T01730148  RH  085%=      5-min Rain = 0
KAHS 240311Z 09008KT 17/15 A2981 RMK A01 T01730148  RH  085%=      5-min Rain = 0
KAHS 240312Z 09008KT 17/15 A2981 RMK A01 T01730148  RH  085%=      5-min Rain = 0
KAHS 240313Z 08008KT 17/15 A2981 RMK A01 T01730148  RH  085%=      5-min Rain = 0
KAHS 240314Z 09008KT 17/15 A2981 RMK A01 T01730147  RH  085%=      5-min Rain = 0
KAHS 240315Z 08010KT 17/15 A2981 RMK A01 T01740147  RH  085%=      5-min Rain = 0
KAHS 240316Z 08009KT 17/15 A2981 RMK A01 T01740147  RH  084%=      5-min Rain = 0
KAHS 240317Z 07007KT 17/15 A2981 RMK A01 T01740147  RH  084%=      5-min Rain = 0
KAHS 240318Z 08007KT 17/15 A298 RMK A01 T01740147  RH  084%=      5-min Rain = 0
KAHS 240319Z 07009KT 17/15 A298 RMK A01 T01740147  RH  084%=      5-min Rain = 0
KAHS 240320Z 07009KT 18/15 A298 RMK A01 T01750146  RH  083%=      5-min Rain = 0
KAHS 240321Z 09008KT 18/15 A298 RMK A01 T01760146  RH  083%=      5-min Rain = 0
KAHS 240322Z 11007KT 18/15 A298 RMK A01 T01770145  RH  082%=      5-min Rain = 0
KAHS 240323Z 12007KT 18/15 A298 RMK A01 T01770146  RH  082%=      5-min Rain = 0
KAHS 240324Z 13007KT 18/15 A298 RMK A01 T01760146  RH  083%=      5-min Rain = 0
KAHS 240325Z 13009KT 18/15 A298 RMK A01 T01750146  RH  084%=      5-min Rain = 0
KAHS 240326Z 12008KT 17/15 A298 RMK A01 T01740147  RH  084%=      5-min Rain = 0
KAHS 240327Z 13007KT 17/15 A298 RMK A01 T01740146  RH  084%=      5-min Rain = 0
KAHS 240328Z 13008KT 18/15 A298 RMK A01 T01750146  RH  083%=      5-min Rain = 0
KAHS 240329Z 13010KT 18/15 A298 RMK A01 T01750145  RH  083%=      5-min Rain = 0
KAHS 240330Z 12009KT 18/15 A298 RMK A01 T01760145  RH  082%=      5-min Rain = 0
KAHS 240331Z 11009KT 18/15 A298 RMK A01 T01760145  RH  082%=      5-min Rain = 0
KAHS 240332Z 12009KT 18/14 A298 RMK A01 T01760144  RH  081%=      5-min Rain = 0
KAHS 240333Z 12009KT 18/14 A298 RMK A01 T01770144  RH  081%=      5-min Rain = 0
KAHS 240334Z 12010KT 18/14 A298 RMK A01 T01780144  RH  080%=      5-min Rain = 0
KAHS 240335Z 12008KT 18/14 A2981 RMK A01 T01790143  RH  080%=      5-min Rain = 0
KAHS 240336Z 12008KT 18/14 A2981 RMK A01 T01790143  RH  079%=      5-min Rain = 0
KAHS 240337Z 12007KT 18/14 A2981 RMK A01 T01800142  RH  079%=      5-min Rain = 0
KAHS 240338Z 12006KT 18/14 A2981 RMK A01 T01800143  RH  079%=      5-min Rain = 0
KAHS 240339Z 13008KT 18/14 A2981 RMK A01 T01800142  RH  079%=      5-min Rain = 0
KAHS 240340Z 13007KT 18/14 A2981 RMK A01 T01800142  RH  078%=      5-min Rain = 0
KAHS 240341Z 13009KT 18/14 A2981 RMK A01 T01810141  RH  077%=      5-min Rain = 0
KAHS 240342Z 13008KT 18/14 A2981 RMK A01 T01810141  RH  077%=      5-min Rain = 0
KAHS 240343Z 12010KT 18/14 A2981 RMK A01 T01820141  RH  077%=      5-min Rain = 0
KAHS 240344Z 11010KT 18/14 A2981 RMK A01 T01820140  RH  076%=      5-min Rain = 0
KAHS 240345Z 11011KT 18/14 A2981 RMK A01 T01830140  RH  076%=      5-min Rain = 0
KAHS 240346Z 10010KT 18/14 A2981 RMK A01 T01830140  RH  076%=      5-min Rain = 0
KAHS 240347Z 11010KT 18/14 A2981 RMK A01 T01830140  RH  076%=      5-min Rain = 0
KAHS 240348Z 11011KT 18/14 A2981 RMK A01 T01830140  RH  076%=      5-min Rain = 0
KAHS 240349Z 11010KT 18/14 A2981 RMK A01 T01830140  RH  076%=      5-min Rain = 0
KAHS 240350Z 11008KT 18/14 A2981 RMK A01 T01830140  RH  076%=      5-min Rain = 0
KAHS 240351Z 11009KT 18/14 A2981 RMK A01 T01830140  RH  076%=      5-min Rain = 0
KAHS 240352Z 11008KT 18/14 A2981 RMK A01 T01830140  RH  076%=      5-min Rain = 0
KAHS 240353Z 13008KT 18/14 A2981 RMK A01 T01820140  RH  076%=      5-min Rain = 0
KAHS 240354Z 12007KT 18/14 A2981 RMK A01 T01820140  RH  076%=      5-min Rain = 0
KAHS 240355Z 12007KT 18/14 A2981 RMK A01 T01820140  RH  076%=      5-min Rain = 0
KAHS 240356Z 11009KT 18/14 A2981 RMK A01 T01820140  RH  076%=      5-min Rain = 0
KAHS 240357Z 10011KT 18/14 A2981 RMK A01 T01820139  RH  076%=      5-min Rain = 0
KAHS 240358Z 11011KT 18/14 A2981 RMK A01 T01830139  RH  076%=      5-min Rain = 0
KAHS 240359Z 11009KT 18/14 A2981 RMK A01 T01830139  RH  076%=      5-min Rain = 0
KAHS 240400Z 12010KT 18/14 A2982 RMK A01 T01830140  RH  076%=      5-min Rain = 0
KAHS 240401Z 12011KT 18/14 A2982 RMK A01 T01830140  RH  076%=      5-min Rain = 0
KAHS 240402Z 11011KT 18/14 A2982 RMK A01 T01830139  RH  076%=      5-min Rain = 0
KAHS 240403Z 12012KT 18/14 A2982 RMK A01 T01840139  RH  075%=      5-min Rain = 0
KAHS 240404Z 12008KT 18/14 A2982 RMK A01 T01830139  RH  075%=      5-min Rain = 0
KAHS 240405Z 12008KT 18/14 A2982 RMK A01 T01830140  RH  076%=      5-min Rain = 0
KAHS 240406Z 11010KT 18/14 A2982 RMK A01 T01820140  RH  076%=      5-min Rain = 0
KAHS 240407Z 11009KT 18/14 A2982 RMK A01 T01830140  RH  076%=      5-min Rain = 0
KAHS 240408Z 11010KT 18/14 A2982 RMK A01 T01820140  RH  076%=      5-min Rain = 0
KAHS 240409Z 11010KT 18/14 A2982 RMK A01 T01820139  RH  076%=      5-min Rain = 0
KAHS 240410Z 11009KT 18/14 A2982 RMK A01 T01820140  RH  076%=      5-min Rain = 0
KAHS 240411Z 11010G15KT 18/14 A2983 RMK A01 T01820140  RH  077%=      5-min Rain = 0
KAHS 240412Z 11013KT 18/14 A2983 RMK A01 T01820139  RH  076%=      5-min Rain = 0
KAHS 240413Z 11011KT 18/14 A2983 RMK A01 T01830139  RH  075%=      5-min Rain = 0
KAHS 240414Z 12009KT 18/14 A2983 RMK A01 T01830139  RH  076%=      5-min Rain = 0
KAHS 240415Z 11010KT 18/14 A2983 RMK A01 T01830139  RH  076%=      5-min Rain = 0
KAHS 240416Z 11008KT 18/14 A2983 RMK A01 T01830140  RH  076%=      5-min Rain = 0
KAHS 240417Z 12008KT 18/14 A2983 RMK A01 T01820140  RH  076%=      5-min Rain = 0
KAHS 240418Z 12007KT 18/14 A2984 RMK A01 T01810140  RH  077%=      5-min Rain = 0
KAHS 240419Z 11007KT 18/14 A2984 RMK A01 T01810141  RH  077%=      5-min Rain = 0
KAHS 240420Z 12009KT 18/14 A2984 RMK A01 T01800141  RH  078%=      5-min Rain = 0
KAHS 240421Z 12008KT 18/14 A2984 RMK A01 T01800140  RH  077%=      5-min Rain = 0
KAHS 240422Z 12006KT 18/14 A2984 RMK A01 T01800140  RH  077%=      5-min Rain = 0
KAHS 240423Z 12006KT 18/14 A2984 RMK A01 T01800140  RH  078%=      5-min Rain = 0
KAHS 240424Z 12010KT 18/14 A2984 RMK A01 T01800140  RH  077%=      5-min Rain = 0
KAHS 240425Z 12007KT 18/14 A2984 RMK A01 T01810140  RH  077%=      5-min Rain = 0
KAHS 240426Z 13005KT 18/14 A2984 RMK A01 T01800140  RH  077%=      5-min Rain = 0
KAHS 240427Z 13007KT 18/14 A2985 RMK A01 T01800140  RH  078%=      5-min Rain = 0
KAHS 240428Z 14007KT 18/14 A2985 RMK A01 T01790140  RH  078%=      5-min Rain = 0
KAHS 240429Z 14009KT 18/14 A2985 RMK A01 T01800139  RH  077%=      5-min Rain = 0
KAHS 240430Z 14008KT 18/14 A2985 RMK A01 T01800139  RH  077%=      5-min Rain = 0
KAHS 240431Z 14008KT 18/14 A2985 RMK A01 T01800140  RH  077%=      5-min Rain = 0
KAHS 240432Z 12008KT 18/14 A2985 RMK A01 T01800140  RH  077%=      5-min Rain = 0
KAHS 240433Z 13008KT 18/14 A2985 RMK A01 T01790140  RH  077%=      5-min Rain = 0
KAHS 240434Z 12007KT 18/14 A2985 RMK A01 T01790140  RH  078%=      5-min Rain = 0
KAHS 240435Z 13007KT 18/14 A2985 RMK A01 T01790140  RH  077%=      5-min Rain = 0
KAHS 240436Z 12006KT 18/14 A2985 RMK A01 T01790140  RH  078%=      5-min Rain = 0
KAHS 240437Z 12009KT 18/14 A2985 RMK A01 T01790140  RH  078%=      5-min Rain = 0
KAHS 240438Z 12010KT 18/14 A2985 RMK A01 T01790139  RH  078%=      5-min Rain = 0
KAHS 240439Z 11010KT 18/14 A2985 RMK A01 T01790140  RH  078%=      5-min Rain = 0
KAHS 240440Z 11010KT 18/14 A2985 RMK A01 T01790139  RH  078%=      5-min Rain = 0
KAHS 240441Z 11010KT 18/14 A2985 RMK A01 T01790140  RH  078%=      5-min Rain = 0
KAHS 240442Z 12007KT 18/14 A2985 RMK A01 T01790140  RH  078%=      5-min Rain = 0
KAHS 240443Z 11010KT 18/14 A2985 RMK A01 T01780140  RH  079%=      5-min Rain = 0
KAHS 240444Z 11010KT 18/14 A2985 RMK A01 T01780140  RH  078%=      5-min Rain = 0
KAHS 240445Z 11011KT 18/14 A2985 RMK A01 T01780140  RH  078%=      5-min Rain = 0
KAHS 240446Z 11012KT 18/14 A2985 RMK A01 T01780140  RH  078%=      5-min Rain = 0
KAHS 240447Z 11011KT 18/14 A2985 RMK A01 T01790140  RH  078%=      5-min Rain = 0
KAHS 240448Z 11010KT 18/14 A2985 RMK A01 T01780140  RH  078%=      5-min Rain = 0
KAHS 240449Z 10009KT 18/14 A2985 RMK A01 T01780140  RH  079%=      5-min Rain = 0
KAHS 240450Z 10011KT 18/14 A2985 RMK A01 T01780140  RH  079%=      5-min Rain = 0
KAHS 240451Z 12010KT 18/14 A2985 RMK A01 T01770140  RH  079%=      5-min Rain = 0
KAHS 240452Z 11012KT 18/14 A2985 RMK A01 T01770140  RH  079%=      5-min Rain = 0
KAHS 240453Z 11010KT 18/14 A2985 RMK A01 T01770140  RH  078%=      5-min Rain = 0
KAHS 240454Z 11010KT 18/14 A2985 RMK A01 T01770140  RH  079%=      5-min Rain = 0
KAHS 240455Z 11011KT 18/14 A2985 RMK A01 T01770140  RH  079%=      5-min Rain = 0
KAHS 240456Z 11013KT 18/14 A2985 RMK A01 T01770140  RH  079%=      5-min Rain = 0
KAHS 240457Z 11013KT 18/14 A2985 RMK A01 T01780139  RH  078%=      5-min Rain = 0
KAHS 240458Z 11012KT 18/14 A2985 RMK A01 T01790139  RH  077%=      5-min Rain = 0
KAHS 240459Z 11010KT 18/14 A2985 RMK A01 T01780139  RH  078%=      5-min Rain = 0

Page generated in 0.1453 seconds.